Data for 07/21/2010

Time Sea-Level Adjusted Pressure Absolute Pressure Temperature Relative Humidity Dew Point Precipitation   
(mb) (inHg) (mb) (inHg) (C) (F) (%) (C) (F) (mm) (in)
00:01 1020 30.12 849 25.07 16.9 62.5 59 8.9 48 17.32 0.682
00:02 1019 30.09 849 25.07 16.9 62.5 59 8.9 48 17.27 0.68
00:03 1019 30.09 849 25.07 16.9 62.4 59 8.9 48 17.24 0.679
00:04 1020 30.12 849 25.07 16.9 62.4 60 9 48.3 17.22 0.678
00:05 1019 30.09 849 25.07 16.8 62.3 59 8.9 48 17.16 0.676
00:06 1019 30.09 849 25.07 16.8 62.2 60 8.9 48.1 17.12 0.674
00:07 1019 30.09 849 25.07 16.7 62.1 60 8.9 48 17.06 0.672
00:08 1019 30.09 849 25.07 16.7 62 59 8.8 47.9 17.02 0.67
00:09 1019 30.09 849 25.07 16.7 62 60 8.9 48 17.08 0.672
00:10 1019 30.09 849 25.07 16.7 62 60 8.9 48 17 0.669
00:11 1020 30.12 849 25.07 16.6 61.8 60 8.9 48.1 16.94 0.667
00:12 1020 30.12 849 25.07 16.5 61.8 60 8.9 48.1 16.87 0.664
00:13 1019 30.09 849 25.07 16.5 61.7 60 8.9 48 16.87 0.664
00:14 1020 30.12 849 25.07 16.5 61.7 60 8.9 48 16.88 0.665
00:15 1019 30.09 849 25.07 16.5 61.7 61 8.9 48.1 16.87 0.664
00:16 1020 30.12 849 25.07 16.5 61.6 60 8.8 47.9 16.83 0.663
00:17 1019 30.09 849 25.07 16.5 61.7 60 8.8 47.9 16.91 0.666
00:18 1019 30.09 849 25.07 16.5 61.7 60 8.8 47.8 16.89 0.665
00:19 1019 30.09 849 25.07 16.6 61.8 60 8.8 47.9 16.93 0.667
00:20 1019 30.09 849 25.07 16.6 61.9 60 8.8 47.9 16.94 0.667
00:21 1019 30.09 849 25.07 16.5 61.7 60 8.8 47.8 16.9 0.665
00:22 1019 30.09 849 25.07 16.5 61.7 60 8.9 47.9 16.84 0.663
00:23 1019 30.09 849 25.07 16.4 61.6 60 8.8 47.9 16.81 0.662
00:24 1019 30.09 849 25.07 16.4 61.5 60 8.8 47.8 16.78 0.661
00:25 1019 30.09 849 25.07 16.4 61.5 61 8.9 48 16.77 0.66
00:26 1019 30.09 849 25.07 16.4 61.5 60 8.7 47.7 16.72 0.658
00:27 1019 30.09 849 25.07 16.4 61.4 60 8.7 47.6 16.79 0.661
00:28 1019 30.09 849 25.07 16.4 61.5 61 8.8 47.9 16.76 0.66
00:29 1019 30.09 849 25.07 16.3 61.4 61 8.9 48 16.69 0.657
00:30 1019 30.09 849 25.07 16.3 61.3 61 8.8 47.9 16.59 0.653
00:31 1019 30.09 849 25.07 16.2 61.2 61 8.9 47.9 16.56 0.652
00:32 1019 30.09 849 25.07 16.1 61.1 61 8.8 47.8 16.53 0.651
00:33 1019 30.09 849 25.07 16.1 61 61 8.8 47.8 16.47 0.648
00:34 1019 30.09 849 25.07 16.1 61 61 8.7 47.7 16.48 0.649
00:35 1019 30.09 849 25.07 16.2 61.1 61 8.8 47.8 16.54 0.651
00:36 1019 30.09 849 25.07 16.2 61.1 61 8.7 47.7 16.53 0.651
00:37 1019 30.09 849 25.07 16.2 61.1 61 8.8 47.8 16.51 0.65
00:38 1019 30.09 849 25.07 16.2 61.1 61 8.8 47.8 16.49 0.649
00:39 1019 30.09 849 25.07 16.1 61 61 8.7 47.6 16.55 0.652
00:40 1019 30.09 849 25.07 16.2 61.2 61 8.8 47.8 16.58 0.653
00:41 1019 30.09 849 25.07 16.2 61.1 61 8.6 47.6 16.54 0.651
00:42 1019 30.09 849 25.07 16.2 61.2 61 8.7 47.7 16.58 0.653
00:43 1019 30.09 849 25.07 16.2 61.2 61 8.8 47.8 16.55 0.652
00:44 1019 30.09 849 25.07 16.2 61.2 61 8.7 47.6 16.59 0.653
00:45 1019 30.09 849 25.07 16.3 61.3 61 8.7 47.7 16.63 0.655
00:46 1019 30.09 849 25.07 16.2 61.2 61 8.7 47.7 16.62 0.654
00:47 1019 30.09 849 25.07 16.2 61.2 61 8.7 47.7 16.56 0.652
00:48 1019 30.09 849 25.07 16.2 61.1 61 8.8 47.8 16.58 0.653
00:49 1019 30.09 849 25.07 16.1 61.1 62 8.8 47.9 16.51 0.65
00:50 1019 30.09 849 25.07 16 60.9 62 8.8 47.8 16.42 0.646
00:51 1019 30.09 849 25.07 16 60.7 62 8.8 47.8 16.32 0.643
00:52 1019 30.09 849 25.07 15.9 60.7 62 8.7 47.7 16.33 0.643
00:53 1019 30.09 849 25.07 15.9 60.7 62 8.8 47.8 16.32 0.643
00:54 1019 30.09 849 25.07 15.9 60.6 62 8.7 47.7 16.29 0.641
00:55 1019 30.09 849 25.07 15.9 60.6 62 8.7 47.6 16.29 0.641
00:56 1019 30.09 849 25.07 15.9 60.7 62 8.7 47.6 16.34 0.643
00:57 1019 30.09 849 25.07 16 60.7 62 8.8 47.8 16.33 0.643
00:58 1019 30.09 849 25.07 16 60.7 62 8.8 47.8 16.32 0.643
00:59 1019 30.09 849 25.07 16 60.7 62 8.7 47.7 16.37 0.644
01:00 1019 30.09 849 25.07 16 60.8 62 8.8 47.8 16.4 0.646
01:01 1019 30.09 849 25.07 16 60.8 62 8.7 47.7 16.37 0.644
01:02 1019 30.09 849 25.07 16 60.8 62 8.8 47.8 16.39 0.645
01:03 1019 30.09 849 25.07 16 60.7 62 8.8 47.8 16.33 0.643
01:04 1019 30.09 849 25.07 15.9 60.7 62 8.7 47.7 16.29 0.641
01:05 1019 30.09 849 25.07 15.9 60.7 62 8.7 47.7 16.29 0.641
01:06 1019 30.09 849 25.07 15.9 60.6 62 8.8 47.8 16.29 0.641
01:07 1019 30.09 849 25.07 15.9 60.5 62 8.7 47.6 16.19 0.637
01:08 1019 30.09 849 25.07 15.9 60.6 62 8.7 47.7 16.27 0.641
01:09 1019 30.09 849 25.07 15.9 60.6 62 8.7 47.7 16.24 0.639
01:10 1019 30.09 849 25.07 15.9 60.7 62 8.7 47.7 16.29 0.641
01:11 1019 30.09 849 25.07 15.9 60.7 62 8.7 47.7 16.3 0.642
01:12 1019 30.09 849 25.07 15.9 60.7 62 8.7 47.7 16.3 0.642
01:13 1019 30.09 849 25.07 15.9 60.7 62 8.7 47.7 16.31 0.642
01:14 1019 30.09 849 25.07 15.9 60.7 62 8.7 47.7 16.29 0.641
01:15 1019 30.09 849 25.07 16 60.7 62 8.7 47.7 16.35 0.644
01:16 1019 30.09 849 25.07 16 60.8 62 8.7 47.7 16.39 0.645
01:17 1019 30.09 849 25.07 16 60.9 62 8.7 47.7 16.4 0.646
01:18 1019 30.09 849 25.07 16 60.8 62 8.8 47.8 16.39 0.645
01:19 1019 30.09 849 25.07 16 60.7 62 8.8 47.9 16.33 0.643
01:20 1019 30.09 849 25.07 15.9 60.5 62 8.8 47.8 16.23 0.639
01:21 1019 30.09 849 25.07 15.9 60.5 62 8.7 47.7 16.21 0.638
01:22 1019 30.09 849 25.07 15.9 60.6 62 8.8 47.8 16.25 0.64
01:23 1019 30.09 849 25.07 15.9 60.7 62 8.7 47.7 16.27 0.641
01:24 1019 30.09 849 25.07 15.9 60.7 62 8.7 47.7 16.31 0.642
01:25 1019 30.09 849 25.07 16 60.7 62 8.8 47.8 16.33 0.643
01:26 1019 30.09 849 25.07 15.9 60.7 62 8.8 47.8 16.31 0.642
01:27 1019 30.09 849 25.07 15.9 60.6 62 8.8 47.8 16.24 0.639
01:28 1019 30.09 849 25.07 15.9 60.6 62 8.7 47.7 16.24 0.639
01:29 1019 30.09 849 25.07 15.9 60.6 62 8.7 47.7 16.24 0.639
01:30 1019 30.09 849 25.07 15.9 60.6 63 8.8 47.9 16.25 0.64
01:31 1019 30.09 849 25.07 15.8 60.5 63 8.7 47.7 16.22 0.639
01:32 1019 30.09 848 25.04 15.8 60.5 63 8.7 47.7 16.21 0.638
01:33 1019 30.09 848 25.04 15.9 60.5 62 8.7 47.6 16.22 0.639
01:34 1019 30.09 848 25.04 15.9 60.6 62 8.8 47.8 16.28 0.641
01:35 1019 30.09 848 25.04 15.9 60.5 63 8.8 47.9 16.2 0.638
01:36 1019 30.09 848 25.04 15.8 60.4 63 8.7 47.7 16.15 0.636
01:37 1019 30.09 848 25.04 15.8 60.4 63 8.7 47.7 16.18 0.637
01:38 1019 30.09 848 25.04 15.8 60.4 62 8.7 47.7 16.19 0.637
01:39 1019 30.09 848 25.04 15.9 60.5 62 8.8 47.8 16.19 0.637
01:40 1019 30.09 848 25.04 15.8 60.5 63 8.8 47.8 16.19 0.637
01:41 1019 30.09 848 25.04 15.8 60.4 63 8.7 47.7 16.16 0.636
01:42 1019 30.09 849 25.07 15.8 60.5 63 8.8 47.8 16.2 0.638
01:43 1019 30.09 848 25.04 15.8 60.5 62 8.7 47.7 16.21 0.638
01:44 1019 30.09 848 25.04 15.9 60.6 62 8.8 47.8 16.22 0.639
01:45 1019 30.09 849 25.07 15.9 60.5 62 8.8 47.8 16.23 0.639
01:46 1019 30.09 848 25.04 15.9 60.5 62 8.8 47.8 16.19 0.637
01:47 1019 30.09 848 25.04 15.9 60.6 63 8.8 47.9 16.23 0.639
01:48 1019 30.09 848 25.04 15.9 60.5 63 8.8 47.9 16.18 0.637
01:49 1019 30.09 848 25.04 15.8 60.4 63 8.8 47.8 16.1 0.634
01:50 1019 30.09 848 25.04 15.8 60.4 63 8.8 47.9 16.11 0.634
01:51 1019 30.09 848 25.04 15.7 60.3 63 8.8 47.9 16.05 0.632
01:52 1019 30.09 848 25.04 15.7 60.2 63 8.8 47.8 16.04 0.631
01:53 1019 30.09 848 25.04 15.6 60.1 64 8.8 47.8 16 0.63
01:54 1019 30.09 848 25.04 15.6 60.1 64 8.8 47.8 15.95 0.628
01:55 1019 30.09 848 25.04 15.6 60.1 63 8.7 47.7 15.98 0.629
01:56 1019 30.09 848 25.04 15.6 60.1 64 8.8 47.9 16.02 0.631
01:57 1019 30.09 848 25.04 15.6 60.1 63 8.7 47.7 16.03 0.631
01:58 1019 30.09 848 25.04 15.7 60.2 63 8.8 47.8 16.03 0.631
01:59 1019 30.09 848 25.04 15.6 60.1 63 8.8 47.8 15.99 0.63
02:00 1019 30.09 848 25.04 15.6 60.2 63 8.8 47.8 15.99 0.63
02:01 1019 30.09 848 25.04 15.6 60.1 64 8.8 47.9 16 0.63
02:02 1019 30.09 848 25.04 15.6 60.1 64 8.8 47.9 15.97 0.629
02:03 1019 30.09 848 25.04 15.6 60.1 64 8.8 47.9 15.97 0.629
02:04 1019 30.09 848 25.04 15.6 60 64 8.9 47.9 15.94 0.628
02:05 1019 30.09 848 25.04 15.5 60 64 8.8 47.8 15.92 0.627
02:06 1019 30.09 848 25.04 15.6 60 64 8.8 47.9 15.89 0.626
02:07 1019 30.09 848 25.04 15.5 60 64 8.9 48 15.9 0.626
02:08 1019 30.09 848 25.04 15.5 60 64 8.8 47.9 15.84 0.624
02:09 1019 30.09 848 25.04 15.5 59.8 64 8.8 47.8 15.89 0.626
02:10 1019 30.09 848 25.04 15.6 60 64 8.8 47.9 15.99 0.63
02:11 1019 30.09 849 25.07 15.6 60.1 64 8.9 48 15.94 0.628
02:12 1019 30.09 849 25.07 15.5 60 64 8.9 48 15.89 0.626
02:13 1019 30.09 849 25.07 15.5 59.8 64 8.8 47.9 15.82 0.623
02:14 1019 30.09 849 25.07 15.4 59.8 64 8.8 47.9 15.81 0.622
02:15 1019 30.09 849 25.07 15.5 59.8 64 8.8 47.9 15.82 0.623
02:16 1019 30.09 849 25.07 15.4 59.8 64 8.8 47.8 15.82 0.623
02:17 1019 30.09 849 25.07 15.4 59.8 65 8.8 47.9 15.81 0.622
02:18 1019 30.09 849 25.07 15.4 59.7 64 8.8 47.8 15.8 0.622
02:19 1019 30.09 849 25.07 15.4 59.8 64 8.8 47.9 15.81 0.622
02:20 1020 30.12 849 25.07 15.4 59.7 65 8.9 47.9 15.77 0.621
02:21 1019 30.09 849 25.07 15.4 59.7 65 8.8 47.9 15.78 0.621
02:22 1020 30.12 849 25.07 15.4 59.7 65 8.8 47.9 15.75 0.62
02:23 1019 30.09 849 25.07 15.4 59.7 65 8.9 48.1 15.73 0.619
02:24 1019 30.09 849 25.07 15.4 59.6 65 8.9 47.9 15.69 0.618
02:25 1020 30.12 849 25.07 15.3 59.6 65 8.9 47.9 15.71 0.619
02:26 1020 30.12 849 25.07 15.3 59.5 65 8.9 47.9 15.68 0.617
02:27 1019 30.09 849 25.07 15.3 59.5 65 8.8 47.9 15.69 0.618
02:28 1020 30.12 849 25.07 15.3 59.5 65 8.8 47.9 15.64 0.616
02:29 1020 30.12 849 25.07 15.3 59.5 65 8.8 47.9 15.64 0.616
02:30 1020 30.12 849 25.07 15.2 59.4 65 8.8 47.9 15.64 0.616
02:31 1020 30.12 849 25.07 15.3 59.5 65 8.8 47.9 15.66 0.617
02:32 1020 30.12 849 25.07 15.2 59.4 65 8.9 48 15.6 0.614
02:33 1020 30.12 849 25.07 15.2 59.4 66 8.9 48 15.58 0.613
02:34 1020 30.12 849 25.07 15.2 59.3 66 8.9 48 15.55 0.612
02:35 1019 30.09 849 25.07 15.1 59.3 66 8.9 47.9 15.5 0.61
02:36 1019 30.09 849 25.07 15.2 59.3 65 8.8 47.9 15.58 0.613
02:37 1019 30.09 849 25.07 15.2 59.3 66 8.9 47.9 15.57 0.613
02:38 1019 30.09 849 25.07 15.2 59.3 65 8.8 47.8 15.56 0.613
02:39 1019 30.09 849 25.07 15.2 59.3 65 8.8 47.9 15.59 0.614
02:40 1019 30.09 849 25.07 15.2 59.4 65 8.8 47.9 15.6 0.614
02:41 1019 30.09 849 25.07 15.2 59.4 66 8.9 48 15.6 0.614
02:42 1019 30.09 849 25.07 15.2 59.4 65 8.8 47.9 15.6 0.614
02:43 1019 30.09 849 25.07 15.2 59.4 65 8.8 47.8 15.59 0.614
02:44 1019 30.09 849 25.07 15.2 59.4 65 8.8 47.9 15.63 0.615
02:45 1019 30.09 849 25.07 15.3 59.5 65 8.9 47.9 15.63 0.615
02:46 1019 30.09 849 25.07 15.2 59.4 65 8.9 47.9 15.6 0.614
02:47 1019 30.09 849 25.07 15.2 59.4 65 8.8 47.9 15.57 0.613
02:48 1019 30.09 849 25.07 15.2 59.3 66 8.8 47.9 15.55 0.612
02:49 1019 30.09 849 25.07 15.1 59.2 66 8.8 47.9 15.5 0.61
02:50 1019 30.09 849 25.07 15.1 59.2 66 8.8 47.9 15.53 0.611
02:51 1019 30.09 849 25.07 15.2 59.3 66 8.9 48 15.5 0.61
02:52 1019 30.09 849 25.07 15.1 59.2 66 8.8 47.9 15.49 0.61
02:53 1019 30.09 849 25.07 15.1 59.2 66 8.8 47.9 15.46 0.609
02:54 1019 30.09 849 25.07 15.1 59.2 66 8.9 48 15.45 0.608
02:55 1019 30.09 849 25.07 15.1 59.2 67 9 48.2 15.39 0.606
02:56 1019 30.09 849 25.07 15 58.9 67 8.8 47.9 15.34 0.604
02:57 1019 30.09 849 25.07 15 58.9 66 8.8 47.9 15.35 0.604
02:58 1019 30.09 849 25.07 15 59 67 8.9 48 15.39 0.606
02:59 1019 30.09 849 25.07 15 59 66 8.9 47.9 15.35 0.604
03:00 1019 30.09 849 25.07 15 59 66 8.9 47.9 15.37 0.605
03:01 1019 30.09 849 25.07 15 59.1 66 8.9 47.9 15.38 0.606
03:02 1019 30.09 849 25.07 15 59 67 8.9 48 15.37 0.605
03:03 1019 30.09 849 25.07 15 58.9 67 8.8 47.9 15.33 0.604
03:04 1019 30.09 849 25.07 14.9 58.9 67 8.8 47.9 15.32 0.603
03:05 1019 30.09 849 25.07 15 59 66 8.8 47.9 15.34 0.604
03:06 1020 30.12 849 25.07 15 59 66 8.8 47.9 15.39 0.606
03:07 1020 30.12 849 25.07 15 59 66 8.9 48 15.38 0.606
03:08 1019 30.09 849 25.07 15 59 66 8.8 47.9 15.33 0.604
03:09 1020 30.12 849 25.07 15 59 67 8.9 48 15.37 0.605
03:10 1020 30.12 849 25.07 14.9 58.8 67 8.9 48 15.3 0.602
03:11 1020 30.12 849 25.07 14.9 58.7 67 8.9 48 15.22 0.599
03:12 1019 30.09 849 25.07 14.9 58.7 67 8.8 47.9 15.22 0.599
03:13 1019 30.09 849 25.07 14.8 58.7 67 8.8 47.8 15.22 0.599
03:14 1020 30.12 849 25.07 14.9 58.8 67 8.8 47.9 15.26 0.601
03:15 1020 30.12 849 25.07 14.9 58.7 67 8.8 47.9 15.24 0.6
03:16 1019 30.09 849 25.07 14.8 58.7 67 8.8 47.9 15.24 0.6
03:17 1019 30.09 849 25.07 14.8 58.7 67 8.9 48 15.18 0.598
03:18 1019 30.09 849 25.07 14.7 58.5 67 8.8 47.9 15.1 0.594
03:19 1019 30.09 849 25.07 14.7 58.5 67 8.7 47.7 15.13 0.596
03:20 1019 30.09 849 25.07 14.8 58.6 67 8.8 47.9 15.14 0.596
03:21 1019 30.09 849 25.07 14.7 58.5 68 8.8 47.9 15.08 0.594
03:22 1019 30.09 849 25.07 14.7 58.5 68 8.8 47.9 15.09 0.594
03:23 1019 30.09 849 25.07 14.7 58.4 68 8.8 47.8 15.07 0.593
03:24 1019 30.09 849 25.07 14.7 58.4 68 8.8 47.9 15.06 0.593
03:25 1020 30.12 849 25.07 14.7 58.5 68 8.8 47.9 15.03 0.592
03:26 1019 30.09 849 25.07 14.6 58.3 68 8.8 47.9 15.03 0.592
03:27 1019 30.09 849 25.07 14.6 58.3 68 8.8 47.9 14.95 0.589
03:28 1020 30.12 849 25.07 14.6 58.2 68 8.8 47.8 14.99 0.59
03:29 1019 30.09 849 25.07 14.5 58.2 68 8.8 47.8 14.92 0.587
03:30 1019 30.09 849 25.07 14.6 58.3 68 8.8 47.8 14.99 0.59
03:31 1019 30.09 849 25.07 14.6 58.3 68 8.8 47.8 14.99 0.59
03:32 1020 30.12 849 25.07 14.6 58.3 68 8.8 47.9 14.97 0.589
03:33 1020 30.12 849 25.07 14.6 58.2 68 8.8 47.8 15 0.591
03:34 1020 30.12 849 25.07 14.6 58.3 68 8.8 47.8 14.95 0.589
03:35 1020 30.12 849 25.07 14.6 58.3 68 8.8 47.9 14.96 0.589
03:36 1020 30.12 849 25.07 14.6 58.2 68 8.8 47.8 14.94 0.588
03:37 1020 30.12 849 25.07 14.6 58.3 68 8.8 47.9 15.02 0.591
03:38 1020 30.12 849 25.07 14.6 58.3 68 8.8 47.9 14.96 0.589
03:39 1020 30.12 849 25.07 14.6 58.3 68 8.8 47.9 14.95 0.589
03:40 1020 30.12 849 25.07 14.5 58.2 68 8.8 47.8 14.94 0.588
03:41 1020 30.12 849 25.07 14.5 58.1 68 8.8 47.8 14.9 0.587
03:42 1020 30.12 849 25.07 14.5 58.1 68 8.8 47.9 14.86 0.585
03:43 1020 30.12 849 25.07 14.4 58 69 8.8 47.8 14.83 0.584
03:44 1020 30.12 849 25.07 14.5 58 68 8.8 47.8 14.85 0.585
03:45 1020 30.12 849 25.07 14.5 58.1 68 8.8 47.8 14.89 0.586
03:46 1020 30.12 849 25.07 14.5 58.1 68 8.8 47.8 14.84 0.584
03:47 1020 30.12 849 25.07 14.5 58.1 68 8.8 47.9 14.85 0.585
03:48 1020 30.12 849 25.07 14.5 58 69 8.8 47.9 14.79 0.582
03:49 1020 30.12 849 25.07 14.4 58 68 8.7 47.7 14.79 0.582
03:50 1020 30.12 849 25.07 14.5 58 68 8.7 47.7 14.81 0.583
03:51 1020 30.12 849 25.07 14.5 58 68 8.7 47.7 14.9 0.587
03:52 1020 30.12 849 25.07 14.6 58.2 68 8.8 47.8 14.93 0.588
03:53 1020 30.12 849 25.07 14.5 58.1 68 8.8 47.9 14.86 0.585
03:54 1020 30.12 849 25.07 14.5 58 68 8.8 47.8 14.82 0.583
03:55 1020 30.12 849 25.07 14.4 57.9 69 8.8 47.9 14.78 0.582
03:56 1020 30.12 849 25.07 14.4 57.8 69 8.8 47.9 14.71 0.579
03:57 1020 30.12 849 25.07 14.3 57.7 69 8.8 47.8 14.67 0.578
03:58 1020 30.12 849 25.07 14.3 57.7 69 8.7 47.7 14.65 0.577
03:59 1020 30.12 849 25.07 14.3 57.8 69 8.7 47.6 14.68 0.578
04:00 1020 30.12 849 25.07 14.4 57.8 69 8.7 47.7 14.73 0.58
04:01 1020 30.12 849 25.07 14.4 57.9 68 8.7 47.6 14.79 0.582
04:02 1020 30.12 849 25.07 14.5 58 68 8.7 47.7 14.81 0.583
04:03 1020 30.12 849 25.07 14.5 58 68 8.8 47.8 14.86 0.585
04:04 1020 30.12 849 25.07 14.5 58 69 8.8 47.9 14.77 0.581
04:05 1020 30.12 849 25.07 14.3 57.8 69 8.8 47.9 14.71 0.579
04:06 1020 30.12 849 25.07 14.3 57.7 69 8.7 47.7 14.63 0.576
04:07 1020 30.12 849 25.07 14.3 57.7 69 8.7 47.6 14.68 0.578
04:08 1020 30.12 849 25.07 14.3 57.8 69 8.7 47.6 14.69 0.578
04:09 1020 30.12 849 25.07 14.4 57.9 68 8.7 47.7 14.76 0.581
04:10 1020 30.12 849 25.07 14.4 57.9 68 8.7 47.7 14.77 0.581
04:11 1020 30.12 849 25.07 14.4 58 68 8.7 47.7 14.79 0.582
04:12 1020 30.12 849 25.07 14.4 57.9 69 8.8 47.8 14.76 0.581
04:13 1020 30.12 849 25.07 14.4 57.9 68 8.7 47.7 14.76 0.581
04:14 1020 30.12 849 25.07 14.4 57.9 69 8.8 47.8 14.75 0.581
04:15 1020 30.12 849 25.07 14.3 57.8 69 8.8 47.9 14.69 0.578
04:16 1020 30.12 849 25.07 14.3 57.7 69 8.7 47.7 14.63 0.576
04:17 1020 30.12 849 25.07 14.3 57.7 69 8.7 47.7 14.64 0.576
04:18 1020 30.12 849 25.07 14.3 57.7 69 8.7 47.7 14.67 0.578
04:19 1020 30.12 849 25.07 14.3 57.8 69 8.7 47.7 14.7 0.579
04:20 1020 30.12 849 25.07 14.3 57.8 69 8.8 47.8 14.66 0.577
04:21 1020 30.12 849 25.07 14.2 57.6 69 8.7 47.7 14.59 0.574
04:22 1020 30.12 849 25.07 14.2 57.6 69 8.7 47.7 14.57 0.574
04:23 1020 30.12 849 25.07 14.2 57.6 69 8.7 47.6 14.55 0.573
04:24 1020 30.12 849 25.07 14.3 57.7 69 8.7 47.7 14.65 0.577
04:25 1020 30.12 849 25.07 14.3 57.7 69 8.7 47.6 14.61 0.575
04:26 1020 30.12 849 25.07 14.2 57.6 69 8.7 47.7 14.61 0.575
04:27 1020 30.12 849 25.07 14.3 57.7 69 8.8 47.8 14.62 0.576
04:28 1020 30.12 849 25.07 14.2 57.6 69 8.8 47.8 14.59 0.574
04:29 1020 30.12 849 25.07 14.2 57.5 70 8.8 47.8 14.51 0.571
04:30 1020 30.12 849 25.07 14.1 57.4 70 8.7 47.7 14.49 0.57
04:31 1020 30.12 849 25.07 14 57.2 70 8.7 47.7 14.4 0.567
04:32 1020 30.12 849 25.07 14 57.2 70 8.7 47.6 14.38 0.566
04:33 1020 30.12 849 25.07 14 57.3 70 8.7 47.7 14.4 0.567
04:34 1020 30.12 849 25.07 14 57.2 70 8.7 47.6 14.37 0.566
04:35 1020 30.12 849 25.07 14 57.2 70 8.7 47.6 14.39 0.567
04:36 1020 30.12 849 25.07 14 57.2 70 8.6 47.5 14.45 0.569
04:37 1020 30.12 849 25.07 14.1 57.4 69 8.7 47.6 14.5 0.571
04:38 1020 30.12 849 25.07 14.1 57.4 70 8.7 47.6 14.46 0.569
04:39 1020 30.12 849 25.07 14.1 57.3 70 8.7 47.6 14.46 0.569
04:40 1020 30.12 849 25.07 14.1 57.3 70 8.7 47.7 14.46 0.569
04:41 1020 30.12 849 25.07 14.1 57.3 70 8.7 47.6 14.45 0.569
04:42 1020 30.12 849 25.07 14 57.3 70 8.7 47.7 14.43 0.568
04:43 1020 30.12 849 25.07 14 57.1 70 8.6 47.6 14.37 0.566
04:44 1020 30.12 849 25.07 14 57.2 70 8.7 47.6 14.37 0.566
04:45 1020 30.12 849 25.07 14 57.2 70 8.7 47.6 14.4 0.567
04:46 1020 30.12 849 25.07 14 57.2 70 8.7 47.7 14.36 0.565
04:47 1020 30.12 849 25.07 13.9 57.1 70 8.7 47.6 14.31 0.563
04:48 1020 30.12 849 25.07 14 57.1 70 8.7 47.6 14.35 0.565
04:49 1020 30.12 849 25.07 14 57.1 70 8.7 47.6 14.32 0.564
04:50 1020 30.12 849 25.07 14 57.1 70 8.6 47.5 14.36 0.565
04:51 1020 30.12 849 25.07 14 57.1 70 8.7 47.6 14.35 0.565
04:52 1020 30.12 849 25.07 14 57.2 70 8.7 47.6 14.35 0.565
04:53 1020 30.12 849 25.07 14 57.3 70 8.7 47.6 14.47 0.57
04:54 1020 30.12 849 25.07 14.1 57.3 70 8.7 47.6 14.43 0.568
04:55 1020 30.12 849 25.07 14 57.2 70 8.7 47.6 14.42 0.568
04:56 1020 30.12 849 25.07 14 57.2 70 8.7 47.6 14.41 0.567
04:57 1020 30.12 849 25.07 14.1 57.3 70 8.7 47.6 14.43 0.568
04:58 1020 30.12 849 25.07 14.1 57.4 70 8.7 47.7 14.48 0.57
04:59 1020 30.12 849 25.07 14 57.3 70 8.8 47.8 14.37 0.566
05:00 1020 30.12 849 25.07 14 57.1 70 8.7 47.7 14.34 0.565
05:01 1020 30.12 849 25.07 14 57.1 70 8.7 47.6 14.39 0.567
05:02 1020 30.12 849 25.07 14 57.2 70 8.6 47.5 14.44 0.569
05:03 1020 30.12 849 25.07 14.1 57.4 69 8.6 47.6 14.5 0.571
05:04 1020 30.12 849 25.07 14.1 57.4 70 8.7 47.7 14.46 0.569
05:05 1020 30.12 849 25.07 14.1 57.3 70 8.7 47.7 14.44 0.569
05:06 1020 30.12 849 25.07 14 57.2 70 8.7 47.7 14.4 0.567
05:07 1020 30.12 849 25.07 14 57.3 70 8.7 47.6 14.4 0.567
05:08 1020 30.12 849 25.07 14 57.2 70 8.7 47.6 14.44 0.569
05:09 1020 30.12 849 25.07 14 57.3 70 8.7 47.6 14.43 0.568
05:10 1020 30.12 849 25.07 14.1 57.3 70 8.7 47.6 14.45 0.569
05:11 1020 30.12 849 25.07 14.1 57.3 70 8.8 47.8 14.41 0.567
05:12 1020 30.12 849 25.07 14 57.2 70 8.7 47.7 14.34 0.565
05:13 1020 30.12 849 25.07 14 57.2 70 8.7 47.6 14.36 0.565
05:14 1020 30.12 849 25.07 14 57.2 70 8.7 47.6 14.41 0.567
05:15 1020 30.12 849 25.07 14 57.2 70 8.6 47.5 14.43 0.568
05:16 1020 30.12 849 25.07 14.1 57.3 70 8.7 47.7 14.46 0.569
05:17 1020 30.12 849 25.07 14 57.2 70 8.8 47.8 14.39 0.567
05:18 1020 30.12 849 25.07 13.9 57.1 71 8.8 47.8 14.27 0.562
05:19 1020 30.12 849 25.07 13.8 56.9 71 8.7 47.7 14.2 0.559
05:20 1020 30.12 849 25.07 13.8 56.8 71 8.7 47.6 14.17 0.558
05:21 1020 30.12 849 25.07 13.9 56.9 71 8.7 47.6 14.19 0.559
05:22 1020 30.12 849 25.07 13.8 56.9 71 8.7 47.7 14.25 0.561
05:23 1020 30.12 849 25.07 13.8 56.9 71 8.7 47.7 14.2 0.559
05:24 1020 30.12 849 25.07 13.8 56.8 71 8.6 47.5 14.2 0.559
05:25 1020 30.12 849 25.07 13.9 57 70 8.6 47.5 14.3 0.563
05:26 1020 30.12 849 25.07 14 57.2 70 8.7 47.7 14.36 0.565
05:27 1020 30.12 849 25.07 14 57.2 70 8.7 47.7 14.35 0.565
05:28 1020 30.12 849 25.07 14 57.2 70 8.7 47.6 14.39 0.567
05:29 1020 30.12 849 25.07 14 57.3 70 8.7 47.6 14.39 0.567
05:30 1020 30.12 849 25.07 14.1 57.3 70 8.7 47.7 14.43 0.568
05:31 1020 30.12 849 25.07 14 57.2 70 8.7 47.6 14.36 0.565
05:32 1020 30.12 849 25.07 14 57.2 70 8.7 47.6 14.4 0.567
05:33 1020 30.12 849 25.07 14 57.2 70 8.7 47.7 14.37 0.566
05:34 1020 30.12 849 25.07 14 57.1 70 8.7 47.7 14.36 0.565
05:35 1020 30.12 849 25.07 13.9 57 71 8.7 47.7 14.28 0.562
05:36 1020 30.12 849 25.07 13.9 57 71 8.7 47.7 14.25 0.561
05:37 1020 30.12 849 25.07 13.9 57 71 8.7 47.6 14.29 0.563
05:38 1020 30.12 849 25.07 13.9 57.1 70 8.7 47.6 14.29 0.563
05:39 1020 30.12 849 25.07 13.9 57 71 8.7 47.7 14.27 0.562
05:40 1020 30.12 849 25.07 13.9 56.9 71 8.7 47.7 14.21 0.559
05:41 1020 30.12 849 25.07 13.8 56.8 71 8.7 47.6 14.16 0.557
05:42 1020 30.12 849 25.07 13.8 56.9 71 8.6 47.6 14.19 0.559
05:43 1020 30.12 849 25.07 13.9 57 70 8.6 47.5 14.23 0.56
05:44 1020 30.12 849 25.07 13.9 57.1 70 8.6 47.5 14.34 0.565
05:45 1020 30.12 849 25.07 14 57.1 70 8.7 47.7 14.35 0.565
05:46 1020 30.12 849 25.07 13.9 57.1 71 8.8 47.8 14.27 0.562
05:47 1020 30.12 849 25.07 13.9 56.9 71 8.7 47.7 14.19 0.559
05:48 1020 30.12 849 25.07 13.8 56.9 71 8.7 47.6 14.18 0.558
05:49 1020 30.12 849 25.07 13.9 56.9 71 8.7 47.6 14.23 0.56
05:50 1020 30.12 849 25.07 13.8 56.9 71 8.7 47.6 14.21 0.559
05:51 1020 30.12 849 25.07 13.8 56.8 71 8.7 47.6 14.16 0.557
05:52 1020 30.12 849 25.07 13.8 56.8 71 8.7 47.6 14.19 0.559
05:53 1020 30.12 849 25.07 13.9 57 71 8.7 47.7 14.24 0.561
05:54 1020 30.12 849 25.07 13.9 56.9 71 8.7 47.6 14.24 0.561
05:55 1020 30.12 849 25.07 13.8 56.8 71 8.7 47.6 14.17 0.558
05:56 1020 30.12 849 25.07 13.8 56.8 71 8.7 47.7 14.17 0.558
05:57 1020 30.12 849 25.07 13.8 56.8 72 8.8 47.8 14.11 0.556
05:58 1020 30.12 849 25.07 13.7 56.7 71 8.7 47.6 14.11 0.556
05:59 1020 30.12 849 25.07 13.8 56.8 71 8.6 47.6 14.17 0.558
06:00 1020 30.12 849 25.07 13.8 56.8 71 8.7 47.6 14.18 0.558
06:01 1020 30.12 849 25.07 13.8 56.9 71 8.6 47.5 14.23 0.56
06:02 1020 30.12 849 25.07 13.9 57 71 8.7 47.7 14.27 0.562
06:03 1020 30.12 849 25.07 13.9 57 71 8.7 47.7 14.24 0.561
06:04 1020 30.12 849 25.07 13.8 56.9 71 8.7 47.7 14.23 0.56
06:05 1020 30.12 849 25.07 13.8 56.9 71 8.7 47.7 14.21 0.559
06:06 1020 30.12 849 25.07 13.8 56.8 71 8.7 47.6 14.18 0.558
06:07 1020 30.12 849 25.07 13.8 56.8 72 8.8 47.8 14.11 0.556
06:08 1020 30.12 849 25.07 13.7 56.6 72 8.7 47.7 14.07 0.554
06:09 1020 30.12 849 25.07 13.7 56.6 72 8.7 47.6 14.09 0.555
06:10 1020 30.12 849 25.07 13.7 56.6 72 8.7 47.6 14.08 0.554
06:11 1020 30.12 849 25.07 13.7 56.6 71 8.7 47.6 14.1 0.555
06:12 1020 30.12 849 25.07 13.7 56.7 71 8.7 47.7 14.08 0.554
06:13 1020 30.12 849 25.07 13.7 56.6 72 8.7 47.7 14.11 0.556
06:14 1020 30.12 849 25.07 13.7 56.6 72 8.7 47.6 14.01 0.552
06:15 1020 30.12 849 25.07 13.7 56.6 72 8.7 47.7 14.04 0.553
06:16 1020 30.12 849 25.07 13.6 56.5 72 8.8 47.8 13.98 0.55
06:17 1020 30.12 849 25.07 13.6 56.4 72 8.6 47.5 13.95 0.549
06:18 1020 30.12 849 25.07 13.6 56.5 72 8.7 47.7 13.98 0.55
06:19 1020 30.12 849 25.07 13.6 56.5 72 8.7 47.6 13.96 0.55
06:20 1020 30.12 849 25.07 13.7 56.6 72 8.7 47.7 14 0.551
06:21 1020 30.12 849 25.07 13.6 56.5 72 8.7 47.7 13.99 0.551
06:22 1020 30.12 849 25.07 13.6 56.5 72 8.6 47.6 14.01 0.552
06:23 1020 30.12 849 25.07 13.7 56.6 72 8.7 47.6 14.02 0.552
06:24 1020 30.12 849 25.07 13.7 56.6 72 8.7 47.6 14.04 0.553
06:25 1020 30.12 849 25.07 13.7 56.6 72 8.7 47.6 14.02 0.552
06:26 1020 30.12 849 25.07 13.7 56.7 71 8.7 47.6 14.06 0.554
06:27 1020 30.12 849 25.07 13.7 56.7 72 8.7 47.6 14.07 0.554
06:28 1020 30.12 849 25.07 13.7 56.6 72 8.7 47.6 14.09 0.555
06:29 1020 30.12 849 25.07 13.7 56.6 72 8.7 47.7 14.04 0.553
06:30 1020 30.12 849 25.07 13.6 56.6 72 8.7 47.7 14.04 0.553
06:31 1020 30.12 849 25.07 13.6 56.5 72 8.7 47.7 13.99 0.551
06:32 1020 30.12 849 25.07 13.6 56.5 72 8.8 47.8 13.96 0.55
06:33 1020 30.12 849 25.07 13.5 56.3 73 8.8 47.8 13.88 0.546
06:34 1020 30.12 849 25.07 13.5 56.3 73 8.8 47.8 13.84 0.545
06:35 1020 30.12 849 25.07 13.5 56.4 72 8.7 47.6 13.93 0.548
06:36 1020 30.12 849 25.07 13.7 56.6 72 8.7 47.7 14.01 0.552
06:37 1020 30.12 849 25.07 13.7 56.7 72 8.7 47.7 14.06 0.554
06:38 1020 30.12 849 25.07 13.7 56.7 72 8.8 47.9 14.07 0.554
06:39 1020 30.12 849 25.07 13.7 56.7 72 8.7 47.7 14.11 0.556
06:40 1020 30.12 849 25.07 13.8 56.9 71 8.7 47.7 14.18 0.558
06:41 1020 30.12 849 25.07 13.9 57 71 8.8 47.8 14.27 0.562
06:42 1020 30.12 849 25.07 13.9 57.1 71 8.7 47.7 14.27 0.562
06:43 1020 30.12 849 25.07 14 57.2 70 8.7 47.7 14.31 0.563
06:44 1020 30.12 849 25.07 14 57.2 71 8.8 47.9 14.36 0.565
06:45 1020 30.12 849 25.07 14 57.2 71 8.8 47.9 14.35 0.565
06:46 1020 30.12 849 25.07 14 57.2 71 8.9 47.9 14.38 0.566
06:47 1020 30.12 850 25.1 14 57.2 71 8.8 47.8 14.33 0.564
06:48 1020 30.12 850 25.1 13.7 56.7 71 8.7 47.6 14.13 0.556
06:49 1020 30.12 850 25.1 13.4 56.2 72 8.5 47.4 13.9 0.547
06:50 1020 30.12 850 25.1 13.1 55.7 73 8.5 47.3 13.73 0.541
06:51 1020 30.12 850 25.1 13 55.3 74 8.5 47.2 13.56 0.534
06:52 1020 30.12 850 25.1 12.8 55.1 75 8.4 47.2 13.46 0.53
06:53 1020 30.12 850 25.1 12.7 54.9 75 8.4 47.1 13.39 0.527
06:54 1020 30.12 850 25.1 12.8 55 75 8.5 47.3 13.35 0.526
06:55 1020 30.12 850 25.1 12.7 54.9 75 8.4 47.1 13.39 0.527
06:56 1020 30.12 850 25.1 12.7 54.9 74 8.2 46.8 13.35 0.526
06:57 1020 30.12 850 25.1 12.6 54.6 75 8.3 46.9 13.19 0.519
06:58 1020 30.12 850 25.1 12.4 54.4 75 8.2 46.8 13.09 0.515
06:59 1020 30.12 850 25.1 12.3 54.1 76 8.2 46.8 12.92 0.509
07:00 1020 30.12 850 25.1 12.2 54 76 8.2 46.7 12.83 0.505
07:01 1020 30.12 850 25.1 12.1 53.8 76 8.1 46.6 12.76 0.502
07:02 1020 30.12 850 25.1 12.1 53.7 77 8.1 46.6 12.66 0.498
07:03 1020 30.12 850 25.1 12 53.5 77 8.1 46.5 12.5 0.492
07:04 1020 30.12 850 25.1 11.9 53.4 78 8.2 46.7 12.43 0.489
07:05 1020 30.12 850 25.1 12 53.6 78 8.2 46.8 12.51 0.493
07:06 1020 30.12 850 25.1 12.2 53.9 77 8.3 46.9 12.65 0.498
07:07 1020 30.12 850 25.1 12.3 54.2 77 8.4 47.1 12.8 0.504
07:08 1020 30.12 850 25.1 12.5 54.6 76 8.5 47.3 13 0.512
07:09 1020 30.12 849 25.07 12.7 54.9 76 8.6 47.6 13.16 0.518
07:10 1020 30.12 850 25.1 12.9 55.2 75 8.6 47.4 13.33 0.525
07:11 1020 30.12 850 25.1 13.1 55.5 74 8.7 47.6 13.46 0.53
07:12 1020 30.12 850 25.1 13.2 55.8 74 8.8 47.8 13.64 0.537
07:13 1020 30.12 850 25.1 13.3 56 75 8.9 48.1 13.72 0.54
07:14 1020 30.12 849 25.07 13.4 56.1 74 8.8 47.9 13.77 0.542
07:15 1020 30.12 849 25.07 13.5 56.2 74 9 48.2 13.88 0.546
07:16 1020 30.12 849 25.07 13.5 56.4 73 8.9 48 13.96 0.55
07:17 1020 30.12 849 25.07 13.6 56.5 73 9 48.1 14.05 0.553
07:18 1020 30.12 849 25.07 13.7 56.7 73 8.9 48.1 14.13 0.556
07:19 1020 30.12 849 25.07 13.9 57.1 72 9 48.2 14.32 0.564
07:20 1020 30.12 849 25.07 14.1 57.4 71 9 48.3 14.51 0.571
07:21 1020 30.12 849 25.07 14.3 57.7 71 9.2 48.5 14.66 0.577
07:22 1020 30.12 849 25.07 14.4 57.8 70 9 48.2 14.74 0.58
07:23 1020 30.12 849 25.07 14.5 58 70 9 48.2 14.82 0.583
07:24 1020 30.12 849 25.07 14.5 58.1 69 8.9 48.1 14.89 0.586
07:25 1020 30.12 849 25.07 14.6 58.2 69 9.1 48.4 14.96 0.589
07:26 1020 30.12 849 25.07 14.7 58.4 69 9 48.3 15 0.591
07:27 1020 30.12 849 25.07 14.7 58.4 70 9.3 48.7 15.06 0.593
07:28 1020 30.12 849 25.07 14.7 58.5 68 9 48.2 15.11 0.595
07:29 1020 30.12 849 25.07 14.7 58.5 68 9 48.2 15.13 0.596
07:30 1020 30.12 849 25.07 14.8 58.6 68 9 48.2 15.17 0.597
07:31 1020 30.12 849 25.07 14.8 58.6 68 9 48.2 15.14 0.596
07:32 1020 30.12 849 25.07 14.8 58.6 68 9 48.1 15.22 0.599
07:33 1020 30.12 849 25.07 14.8 58.7 68 9 48.2 15.22 0.599
07:34 1020 30.12 849 25.07 14.8 58.7 68 9 48.3 15.23 0.6
07:35 1020 30.12 849 25.07 14.9 58.8 68 9 48.3 15.28 0.602
07:36 1020 30.12 849 25.07 14.9 58.8 68 9.2 48.6 15.34 0.604
07:37 1020 30.12 849 25.07 15 58.9 67 9.1 48.3 15.41 0.607
07:38 1020 30.12 849 25.07 15 59 68 9.2 48.6 15.39 0.606
07:39 1020 30.12 849 25.07 15 59 68 9.1 48.4 15.43 0.607
07:40 1020 30.12 849 25.07 15 59.1 68 9.2 48.6 15.43 0.607
07:41 1020 30.12 849 25.07 15.1 59.2 68 9.2 48.5 15.52 0.611
07:42 1020 30.12 849 25.07 15.1 59.2 68 9.4 48.9 15.56 0.613
07:43 1020 30.12 849 25.07 15.2 59.3 66 9 48.2 15.62 0.615
07:44 1020 30.12 849 25.07 15.2 59.3 68 9.3 48.8 15.57 0.613
07:45 1020 30.12 849 25.07 15.2 59.4 68 9.3 48.8 15.6 0.614
07:46 1020 30.12 849 25.07 15.2 59.4 67 9.2 48.5 15.6 0.614
07:47 1020 30.12 849 25.07 15.2 59.4 67 9.2 48.6 15.61 0.615
07:48 1020 30.12 849 25.07 15.2 59.4 67 9.2 48.5 15.61 0.615
07:49 1020 30.12 849 25.07 15.3 59.5 67 9.3 48.7 15.64 0.616
07:50 1020 30.12 849 25.07 15.3 59.5 67 9.4 48.8 15.7 0.618
07:51 1020 30.12 849 25.07 15.3 59.6 68 9.5 49 15.72 0.619
07:52 1020 30.12 849 25.07 15.4 59.7 67 9.4 48.9 15.76 0.62
07:53 1020 30.12 849 25.07 15.4 59.8 68 9.6 49.2 15.84 0.624
07:54 1020 30.12 849 25.07 15.5 59.9 66 9.2 48.5 15.88 0.625
07:55 1020 30.12 849 25.07 15.4 59.8 68 9.6 49.3 15.85 0.624
07:56 1020 30.12 849 25.07 15.5 59.9 67 9.4 49 15.96 0.628
07:57 1020 30.12 849 25.07 15.6 60 67 9.6 49.3 16.02 0.631
07:58 1020 30.12 849 25.07 15.7 60.2 67 9.7 49.4 16.09 0.633
07:59 1020 30.12 849 25.07 15.7 60.2 66 9.4 49 16.12 0.635
08:00 1020 30.12 849 25.07 15.7 60.3 67 9.6 49.3 16.11 0.634
08:01 1020 30.12 849 25.07 15.7 60.2 66 9.3 48.8 16.1 0.634
08:02 1020 30.12 849 25.07 15.7 60.3 65 9.3 48.8 16.1 0.634
08:03 1020 30.12 849 25.07 15.7 60.3 65 9.2 48.6 16.09 0.633
08:04 1020 30.12 849 25.07 15.7 60.2 66 9.5 49 16.04 0.631
08:05 1020 30.12 849 25.07 15.7 60.3 66 9.4 48.8 16.09 0.633
08:06 1020 30.12 849 25.07 15.8 60.4 66 9.5 49.2 16.12 0.635
08:07 1020 30.12 849 25.07 15.8 60.5 65 9.3 48.8 16.18 0.637
08:08 1020 30.12 849 25.07 15.8 60.5 66 9.4 49 16.22 0.639
08:09 1020 30.12 849 25.07 15.8 60.5 67 9.7 49.5 16.2 0.638
08:10 1020 30.12 849 25.07 15.9 60.6 65 9.4 48.8 16.25 0.64
08:11 1020 30.12 849 25.07 15.9 60.7 65 9.4 49 16.28 0.641
08:12 1020 30.12 849 25.07 16 60.7 65 9.5 49 16.3 0.642
08:13 1020 30.12 849 25.07 15.9 60.6 66 9.6 49.2 16.28 0.641
08:14 1020 30.12 849 25.07 15.9 60.7 67 10 49.9 16.29 0.641
08:15 1020 30.12 849 25.07 16 60.8 66 9.8 49.6 16.38 0.645
08:16 1020 30.12 849 25.07 16 60.9 65 9.4 49 16.44 0.647
08:17 1020 30.12 849 25.07 16.1 60.9 65 9.6 49.3 16.45 0.648
08:18 1020 30.12 849 25.07 16.1 60.9 67 9.9 49.9 16.47 0.648
08:19 1020 30.12 849 25.07 16.1 61 67 10 50 16.49 0.649
08:20 1020 30.12 849 25.07 16.2 61.1 65 9.6 49.3 16.59 0.653
08:21 1020 30.12 849 25.07 16.3 61.4 65 9.8 49.6 16.68 0.657
08:22 1020 30.12 849 25.07 16.3 61.4 63 9.4 48.9 16.68 0.657
08:23 1020 30.12 849 25.07 16.3 61.3 65 9.8 49.6 16.65 0.656
08:24 1020 30.12 849 25.07 16.3 61.4 66 10 49.9 16.68 0.657
08:25 1020 30.12 849 25.07 16.4 61.5 64 9.6 49.3 16.72 0.658
08:26 1020 30.12 849 25.07 16.4 61.5 65 9.8 49.6 16.74 0.659
08:27 1020 30.12 849 25.07 16.5 61.6 64 9.6 49.3 16.78 0.661
08:28 1020 30.12 849 25.07 16.4 61.5 66 10 50 16.71 0.658
08:29 1020 30.12 849 25.07 16.4 61.5 64 9.8 49.6 16.75 0.659
08:30 1020 30.12 849 25.07 16.4 61.6 64 9.6 49.3 16.75 0.659
08:31 1020 30.12 849 25.07 16.4 61.5 64 9.8 49.6 16.74 0.659
08:32 1020 30.12 849 25.07 16.4 61.5 65 9.9 49.9 16.73 0.659
08:33 1020 30.12 849 25.07 16.4 61.6 65 10 49.9 16.81 0.662
08:34 1020 30.12 849 25.07 16.6 61.8 61 9.1 48.4 16.95 0.667
08:35 1020 30.12 849 25.07 16.6 61.8 63 9.5 49.1 16.83 0.663
08:36 1020 30.12 849 25.07 16.4 61.5 62 9.2 48.5 16.65 0.656
08:37 1020 30.12 849 25.07 16.3 61.3 65 9.8 49.7 16.59 0.653
08:38 1020 30.12 849 25.07 16.3 61.3 63 9.3 48.7 16.68 0.657
08:39 1020 30.12 849 25.07 16.3 61.3 63 9.3 48.7 16.55 0.652
08:40 1020 30.12 849 25.07 16.1 61 64 9.5 49 16.43 0.647
08:41 1020 30.12 849 25.07 16.1 60.9 65 9.6 49.3 16.47 0.648
08:42 1020 30.12 849 25.07 16.1 60.9 65 9.5 49.1 16.42 0.646
08:43 1020 30.12 849 25.07 16 60.9 65 9.5 49.2 16.36 0.644
08:44 1020 30.12 849 25.07 16 60.7 66 9.6 49.4 16.31 0.642
08:45 1020 30.12 849 25.07 16 60.8 65 9.6 49.3 16.38 0.645
08:46 1020 30.12 849 25.07 16.1 60.9 65 9.6 49.3 16.41 0.646
08:47 1020 30.12 849 25.07 16.1 60.9 65 9.6 49.3 16.39 0.645
08:48 1020 30.12 849 25.07 16 60.9 66 9.7 49.5 16.32 0.643
08:49 1020 30.12 849 25.07 16 60.8 63 9 48.2 16.32 0.643
08:50 1020 30.12 849 25.07 15.9 60.7 65 9.4 49 16.26 0.64
08:51 1020 30.12 849 25.07 16 60.7 64 9.2 48.5 16.31 0.642
08:52 1020 30.12 849 25.07 16 60.8 64 9.4 48.8 16.34 0.643
08:53 1020 30.12 849 25.07 16.1 60.9 65 9.6 49.3 16.39 0.645
08:54 1020 30.12 849 25.07 16.1 61 64 9.5 49.1 16.44 0.647
08:55 1020 30.12 849 25.07 16.2 61.2 66 9.9 49.8 16.47 0.648
08:56 1020 30.12 849 25.07 16.3 61.3 63 9.4 48.9 16.54 0.651
08:57 1020 30.12 849 25.07 16.4 61.5 65 9.8 49.6 16.58 0.653
08:58 1020 30.12 849 25.07 16.5 61.8 63 9.5 49.1 16.74 0.659
08:59 1020 30.12 849 25.07 16.6 61.9 62 9.5 49.1 16.78 0.661
09:00 1020 30.12 849 25.07 16.6 61.9 62 9.4 48.9 16.79 0.661
09:01 1020 30.12 849 25.07 16.6 61.9 65 10.1 50.2 16.8 0.661
09:02 1020 30.12 849 25.07 16.7 62 63 9.6 49.3 16.88 0.665
09:03 1020 30.12 849 25.07 16.7 62.1 63 9.7 49.5 16.94 0.667
09:04 1020 30.12 849 25.07 16.8 62.2 61 9.4 48.9 16.94 0.667
09:05 1020 30.12 849 25.07 16.7 62 65 10.1 50.1 16.91 0.666
09:06 1020 30.12 849 25.07 16.8 62.2 63 9.8 49.7 17.02 0.67
09:07 1020 30.12 849 25.07 16.9 62.3 62 9.6 49.2 17.01 0.67
09:08 1020 30.12 849 25.07 16.9 62.4 65 10.4 50.8 16.98 0.669
09:09 1020 30.12 849 25.07 17 62.6 62 9.8 49.6 17.16 0.676
09:10 1020 30.12 849 25.07 17 62.6 63 10 50.1 17.21 0.678
09:11 1020 30.12 849 25.07 17 62.6 64 10.3 50.5 17.19 0.677
09:12 1020 30.12 849 25.07 17 62.7 64 10.2 50.4 17.19 0.677
09:13 1020 30.12 849 25.07 17.1 62.7 61 9.7 49.4 17.19 0.677
09:14 1020 30.12 849 25.07 17.1 62.7 63 9.9 49.9 17.16 0.676
09:15 1020 30.12 849 25.07 17.1 62.7 63 10.1 50.2 17.18 0.676
09:16 1020 30.12 849 25.07 17 62.6 63 9.9 49.9 17.14 0.675
09:17 1020 30.12 849 25.07 17 62.7 64 10.3 50.6 17.2 0.677
09:18 1020 30.12 849 25.07 17.1 62.8 62 9.9 49.9 17.18 0.676
09:19 1020 30.12 849 25.07 17.1 62.7 61 9.6 49.3 17.22 0.678
09:20 1020 30.12 849 25.07 17.1 62.8 61 9.5 49.2 17.28 0.68
09:21 1020 30.12 849 25.07 17.1 62.8 63 10.1 50.1 17.31 0.681
09:22 1020 30.12 849 25.07 17.2 62.9 62 10 50 17.4 0.685
09:23 1020 30.12 849 25.07 17.4 63.3 59 9.5 49.1 17.59 0.693
09:24 1020 30.12 849 25.07 17.4 63.4 62 10.2 50.4 17.52 0.69
09:25 1020 30.12 849 25.07 17.4 63.4 60 9.6 49.4 17.57 0.692
09:26 1020 30.12 849 25.07 17.3 63.1 64 10.5 50.9 17.36 0.683
09:27 1020 30.12 849 25.07 17.3 63.1 64 10.6 51 17.54 0.691
09:28 1020 30.12 849 25.07 17.5 63.5 62 10.2 50.3 17.74 0.698
09:29 1020 30.12 849 25.07 17.7 63.8 61 10.1 50.2 17.86 0.703
09:30 1020 30.12 849 25.07 17.7 63.9 59 9.7 49.5 17.86 0.703
09:31 1020 30.12 849 25.07 17.6 63.7 63 10.6 51 17.76 0.699
09:32 1020 30.12 849 25.07 17.5 63.5 61 9.9 49.8 17.66 0.695
09:33 1020 30.12 849 25.07 17.4 63.3 61 9.8 49.6 17.65 0.695
09:34 1020 30.12 849 25.07 17.5 63.5 65 10.9 51.6 17.74 0.698
09:35 1020 30.12 849 25.07 17.7 63.8 60 9.8 49.6 17.88 0.704
09:36 1020 30.12 849 25.07 17.6 63.6 62 10.3 50.6 17.73 0.698
09:37 1020 30.12 849 25.07 17.4 63.4 63 10.5 50.8 17.64 0.694
09:38 1020 30.12 849 25.07 17.5 63.4 63 10.5 50.9 17.75 0.699
09:39 1020 30.12 849 25.07 17.6 63.6 63 10.5 50.9 17.78 0.7
09:40 1020 30.12 849 25.07 17.6 63.7 62 10.4 50.7 17.84 0.702
09:41 1020 30.12 849 25.07 17.7 63.8 63 10.5 51 17.91 0.705
09:42 1020 30.12 849 25.07 17.8 64 62 10.5 50.8 18.02 0.709
09:43 1020 30.12 849 25.07 17.8 64.1 60 10.2 50.3 18.09 0.712
09:44 1020 30.12 849 25.07 17.9 64.1 63 10.8 51.5 18.09 0.712
09:45 1020 30.12 849 25.07 17.9 64.3 61 10.5 50.9 18.21 0.717
09:46 1020 30.12 849 25.07 17.9 64.2 61 10.5 50.9 18.11 0.713
09:47 1020 30.12 849 25.07 17.8 64.1 60 10.2 50.3 17.99 0.708
09:48 1020 30.12 849 25.07 17.8 64 62 10.4 50.8 17.97 0.707
09:49 1020 30.12 849 25.07 17.8 64.1 63 10.7 51.3 18.06 0.711
09:50 1020 30.12 849 25.07 18 64.3 60 10.2 50.4 18.19 0.716
09:51 1020 30.12 849 25.07 18 64.5 59 10.1 50.2 18.22 0.717
09:52 1020 30.12 849 25.07 18 64.3 64 11.1 52 18.16 0.715
09:53 1020 30.12 849 25.07 18.1 64.5 61 10.5 51 18.28 0.72
09:54 1020 30.12 849 25.07 18.2 64.8 59 10.2 50.4 18.49 0.728
09:55 1020 30.12 849 25.07 18.3 65 60 10.4 50.8 18.51 0.729
09:56 1020 30.12 849 25.07 18.4 65.1 58 10 50.1 18.51 0.729
09:57 1020 30.12 849 25.07 18.2 64.7 59 10.2 50.3 18.36 0.723
09:58 1020 30.12 849 25.07 18.1 64.6 62 10.7 51.3 18.3 0.72
09:59 1020 30.12 849 25.07 18.2 64.7 59 10.1 50.2 18.4 0.724
10:00 1020 30.12 849 25.07 18.3 64.9 60 10.4 50.8 18.38 0.724
10:01 1020 30.12 849 25.07 18.4 65 60 10.6 51 18.5 0.728
10:02 1020 30.12 849 25.07 18.5 65.2 60 10.7 51.3 18.59 0.732
10:03 1020 30.12 849 25.07 18.6 65.4 60 10.7 51.2 18.73 0.737
10:04 1020 30.12 849 25.07 18.6 65.4 58 10.3 50.5 18.68 0.735
10:05 1020 30.12 849 25.07 18.5 65.2 60 10.8 51.4 18.63 0.733
10:06 1020 30.12 849 25.07 18.4 65.2 58 10.2 50.3 18.65 0.734
10:07 1020 30.12 849 25.07 18.3 65 59 10.3 50.6 18.58 0.731
10:08 1020 30.12 849 25.07 18.3 64.9 60 10.5 50.9 18.59 0.732
10:09 1020 30.12 849 25.07 18.2 64.8 62 10.8 51.5 18.48 0.728
10:10 1020 30.12 849 25.07 18.1 64.6 60 10.4 50.7 18.36 0.723
10:11 1020 30.12 849 25.07 18.1 64.7 59 10.1 50.1 18.35 0.722
10:12 1020 30.12 849 25.07 18.1 64.7 60 10.4 50.8 18.34 0.722
10:13 1020 30.12 849 25.07 18.2 64.8 61 10.6 51.1 18.34 0.722
10:14 1020 30.12 849 25.07 18.3 65 60 10.6 51.1 18.49 0.728
10:15 1020 30.12 849 25.07 18.4 65.1 58 10.1 50.1 18.6 0.732
10:16 1020 30.12 849 25.07 18.4 65.1 58 10.1 50.1 18.48 0.728
10:17 1020 30.12 849 25.07 18.3 65 59 10.3 50.5 18.4 0.724
10:18 1020 30.12 849 25.07 18.4 65.1 60 10.5 50.9 18.59 0.732
10:19 1020 30.12 849 25.07 18.5 65.3 57 10 50.1 18.74 0.738
10:20 1020 30.12 849 25.07 18.5 65.3 58 10.1 50.2 18.7 0.736
10:21 1020 30.12 849 25.07 18.4 65.1 57 9.9 49.8 18.55 0.73
10:22 1020 30.12 849 25.07 18.3 64.9 58 10 49.9 18.46 0.727
10:23 1020 30.12 849 25.07 18.3 64.9 57 9.7 49.4 18.51 0.729
10:24 1020 30.12 849 25.07 18.3 65 58 10 50 18.49 0.728
10:25 1020 30.12 849 25.07 18.4 65 57 9.9 49.8 18.59 0.732
10:26 1020 30.12 849 25.07 18.5 65.3 59 10.4 50.8 18.66 0.735
10:27 1020 30.12 849 25.07 18.7 65.6 58 10.3 50.5 18.86 0.743
10:28 1020 30.12 849 25.07 18.7 65.7 56 9.9 49.9 18.91 0.744
10:29 1020 30.12 849 25.07 18.8 65.8 59 10.8 51.4 18.86 0.743
10:30 1020 30.12 849 25.07 18.8 65.8 57 10.2 50.3 18.84 0.742
10:31 1020 30.12 849 25.07 18.8 65.8 59 10.7 51.2 18.9 0.744
10:32 1020 30.12 849 25.07 18.8 65.8 60 11 51.8 18.94 0.746
10:33 1020 30.12 849 25.07 18.8 65.8 58 10.6 51 18.97 0.747
10:34 1020 30.12 849 25.07 18.7 65.7 58 10.5 50.9 18.88 0.743
10:35 1020 30.12 849 25.07 18.7 65.6 59 10.6 51.1 18.8 0.74
10:36 1020 30.12 849 25.07 18.7 65.6 60 10.8 51.5 18.85 0.742
10:37 1020 30.12 849 25.07 18.7 65.6 56 9.9 49.9 18.81 0.741
10:38 1020 30.12 849 25.07 18.6 65.5 57 10 50 18.75 0.738
10:39 1020 30.12 849 25.07 18.6 65.5 57 10 50 18.73 0.737
10:40 1020 30.12 849 25.07 18.6 65.5 58 10.4 50.7 18.8 0.74
10:41 1020 30.12 849 25.07 18.7 65.7 59 10.5 50.9 18.95 0.746
10:42 1020 30.12 849 25.07 18.8 65.9 55 9.8 49.6 19.16 0.754
10:43 1020 30.12 849 25.07 18.9 66.1 57 10.4 50.7 19.17 0.755
10:44 1020 30.12 849 25.07 19 66.2 59 10.9 51.7 19.12 0.753
10:45 1020 30.12 849 25.07 18.9 66 56 10.1 50.2 19.06 0.75
10:46 1020 30.12 849 25.07 18.9 65.9 60 11.1 52 19.16 0.754
10:47 1020 30.12 849 25.07 19.1 66.3 57 10.6 51 19.32 0.761
10:48 1020 30.12 849 25.07 19 66.2 60 11.3 52.3 19.17 0.755
10:49 1020 30.12 849 25.07 18.9 65.9 57 10.2 50.4 19.13 0.753
10:50 1020 30.12 849 25.07 18.8 65.8 60 10.9 51.7 18.96 0.746
10:51 1020 30.12 849 25.07 18.7 65.7 59 10.6 51.1 18.93 0.745
10:52 1020 30.12 849 25.07 18.8 65.9 59 10.6 51.1 19.1 0.752
10:53 1020 30.12 849 25.07 19 66.1 58 10.7 51.3 19.29 0.759
10:54 1020 30.12 849 25.07 19.1 66.4 57 10.5 51 19.46 0.766
10:55 1020 30.12 849 25.07 19.4 66.9 55 10.2 50.4 19.7 0.776
10:56 1020 30.12 849 25.07 19.5 67.1 58 11.1 51.9 19.62 0.772
10:57 1020 30.12 849 25.07 19.5 67.1 56 10.5 50.9 19.61 0.772
10:58 1020 30.12 849 25.07 19.6 67.2 56 10.7 51.2 19.71 0.776
10:59 1019 30.09 849 25.07 19.5 67.1 55 10.3 50.6 19.7 0.776
11:00 1019 30.09 849 25.07 19.4 66.8 56 10.5 51 19.61 0.772
11:01 1019 30.09 849 25.07 19.2 66.5 57 10.6 51.1 19.42 0.765
11:02 1019 30.09 849 25.07 19 66.3 56 10.2 50.3 19.28 0.759
11:03 1019 30.09 849 25.07 19 66.3 55 10 50 19.33 0.761
11:04 1019 30.09 849 25.07 19.2 66.5 57 10.4 50.8 19.36 0.762
11:05 1019 30.09 849 25.07 19.2 66.6 55 10 50 19.39 0.763
11:06 1019 30.09 849 25.07 19.2 66.6 60 11.3 52.3 19.37 0.763
11:07 1019 30.09 849 25.07 19.3 66.7 54 10 50 19.44 0.765
11:08 1019 30.09 849 25.07 19.2 66.6 56 10.3 50.6 19.38 0.763
11:09 1019 30.09 849 25.07 19.3 66.7 54 9.9 49.8 19.45 0.766
11:10 1019 30.09 849 25.07 19.4 67 58 11 51.7 19.53 0.769
11:11 1019 30.09 849 25.07 19.6 67.3 54 10.1 50.2 19.82 0.78
11:12 1019 30.09 849 25.07 19.7 67.4 54 10.3 50.5 19.8 0.78
11:13 1019 30.09 849 25.07 19.6 67.2 60 11.7 53 19.7 0.776
11:14 1019 30.09 849 25.07 19.6 67.3 54 10.2 50.4 19.84 0.781
11:15 1019 30.09 849 25.07 19.6 67.3 55 10.5 50.9 19.7 0.776
11:16 1019 30.09 848 25.04 19.5 67.1 55 10.4 50.7 19.66 0.774
11:17 1019 30.09 849 25.07 19.5 67.2 56 10.6 51.1 19.69 0.775
11:18 1019 30.09 849 25.07 19.5 67.2 57 10.9 51.7 19.71 0.776
11:19 1019 30.09 849 25.07 19.6 67.2 57 10.8 51.5 19.7 0.776
11:20 1019 30.09 849 25.07 19.6 67.2 54 10.2 50.3 19.75 0.778
11:21 1019 30.09 849 25.07 19.6 67.2 55 10.6 51 19.69 0.775
11:22 1019 30.09 848 25.04 19.7 67.4 56 10.8 51.4 19.85 0.781
11:23 1019 30.09 848 25.04 19.8 67.6 56 10.9 51.7 19.92 0.784
11:24 1019 30.09 848 25.04 19.7 67.5 58 11.3 52.3 19.79 0.779
11:25 1019 30.09 848 25.04 19.6 67.3 56 10.8 51.5 19.81 0.78
11:26 1019 30.09 848 25.04 19.7 67.4 58 11.2 52.1 19.91 0.784
11:27 1019 30.09 848 25.04 19.8 67.6 57 11.1 51.9 20.01 0.788
11:28 1019 30.09 848 25.04 19.8 67.6 55 10.6 51.1 19.99 0.787
11:29 1019 30.09 848 25.04 19.7 67.5 57 11.1 52 19.91 0.784
11:30 1019 30.09 848 25.04 19.7 67.5 57 11.1 52 19.91 0.784
11:31 1019 30.09 848 25.04 19.7 67.4 55 10.5 51 19.87 0.782
11:32 1019 30.09 848 25.04 19.6 67.3 55 10.3 50.5 19.76 0.778
11:33 1019 30.09 848 25.04 19.5 67.1 56 10.6 51.1 19.77 0.778
11:34 1019 30.09 848 25.04 19.6 67.2 54 10.1 50.2 19.81 0.78
11:35 1019 30.09 848 25.04 19.5 67 57 10.9 51.6 19.75 0.778
11:36 1019 30.09 848 25.04 19.6 67.2 57 10.9 51.6 19.87 0.782
11:37 1019 30.09 848 25.04 19.8 67.6 55 10.6 51.1 20.08 0.791
11:38 1019 30.09 848 25.04 20 68 58 11.7 53 20.24 0.797
11:39 1019 30.09 848 25.04 20.1 68.1 56 11.1 52 20.24 0.797
11:40 1019 30.09 848 25.04 19.9 67.7 53 10.3 50.5 19.98 0.787
11:41 1019 30.09 848 25.04 19.6 67.2 55 10.4 50.6 19.71 0.776
11:42 1019 30.09 848 25.04 19.4 67 55 10.3 50.5 19.62 0.772
11:43 1019 30.09 848 25.04 19.4 66.9 58 10.9 51.6 19.51 0.768
11:44 1019 30.09 848 25.04 19.5 67.1 57 10.9 51.6 19.8 0.78
11:45 1019 30.09 848 25.04 19.7 67.4 54 10.1 50.2 19.87 0.782
11:46 1019 30.09 848 25.04 19.7 67.4 55 10.6 51.1 19.87 0.782
11:47 1019 30.09 848 25.04 19.8 67.6 53 10.1 50.2 19.94 0.785
11:48 1019 30.09 848 25.04 19.9 67.7 58 11.5 52.7 19.91 0.784
11:49 1019 30.09 848 25.04 20 67.9 52 10 49.9 20.03 0.789
11:50 1019 30.09 848 25.04 20 68 54 10.6 51.1 20.01 0.788
11:51 1019 30.09 848 25.04 19.9 67.9 59 11.7 53 19.93 0.785
11:52 1019 30.09 848 25.04 20 67.9 58 11.5 52.6 20 0.787
11:53 1019 30.09 848 25.04 20.1 68.2 54 10.6 51 20.23 0.796
11:54 1019 30.09 848 25.04 20.1 68.2 55 10.9 51.7 20.25 0.797
11:55 1019 30.09 848 25.04 19.9 67.8 56 10.9 51.5 20.09 0.791
11:56 1019 30.09 848 25.04 19.7 67.4 55 10.6 51.1 19.94 0.785
11:57 1019 30.09 848 25.04 19.6 67.2 55 10.4 50.7 19.76 0.778
11:58 1019 30.09 848 25.04 19.3 66.8 56 10.4 50.6 19.55 0.77
11:59 1019 30.09 848 25.04 19.2 66.6 56 10.3 50.6 19.43 0.765
12:00 1019 30.09 848 25.04 19.1 66.4 59 10.9 51.7 19.41 0.764
12:01 1019 30.09 848 25.04 19.1 66.5 58 10.9 51.6 19.45 0.766
12:02 1019 30.09 848 25.04 19.2 66.5 56 10.2 50.3 19.43 0.765
12:03 1019 30.09 848 25.04 19.1 66.3 57 10.5 51 19.29 0.759
12:04 1019 30.09 848 25.04 19 66.2 61 11.3 52.4 19.32 0.761
12:05 1019 30.09 848 25.04 19 66.3 59 10.9 51.6 19.29 0.759
12:06 1019 30.09 848 25.04 19 66.3 60 11.3 52.3 19.33 0.761
12:07 1019 30.09 848 25.04 19.1 66.3 56 10.3 50.5 19.31 0.76
12:08 1019 30.09 848 25.04 19.1 66.4 59 11 51.9 19.34 0.761
12:09 1019 30.09 848 25.04 19.1 66.5 57 10.6 51 19.45 0.766
12:10 1019 30.09 848 25.04 19.2 66.5 57 10.7 51.2 19.49 0.767
12:11 1019 30.09 848 25.04 19.2 66.5 58 10.7 51.3 19.54 0.769
12:12 1019 30.09 848 25.04 19.2 66.6 59 11.3 52.3 19.57 0.77
12:13 1019 30.09 848 25.04 19.3 66.7 58 11 51.8 19.59 0.771
12:14 1019 30.09 848 25.04 19.3 66.8 56 10.5 51 19.64 0.773
12:15 1019 30.09 848 25.04 19.3 66.8 58 11.1 52 19.62 0.772
12:16 1019 30.09 848 25.04 19.4 66.9 61 11.8 53.2 19.69 0.775
12:17 1019 30.09 848 25.04 19.5 67.1 56 10.5 51 19.93 0.785
12:18 1019 30.09 848 25.04 19.7 67.5 59 11.5 52.8 20.06 0.79
12:19 1019 30.09 848 25.04 20 67.9 57 11.3 52.4 20.29 0.799
12:20 1019 30.09 848 25.04 20.1 68.1 55 10.9 51.7 20.42 0.804
12:21 1019 30.09 848 25.04 20.1 68.2 56 11.1 52.1 20.43 0.804
12:22 1019 30.09 848 25.04 20 68.1 55 10.9 51.7 20.42 0.804
12:23 1019 30.09 848 25.04 19.9 67.9 57 11.2 52.2 20.33 0.8
12:24 1019 30.09 848 25.04 19.9 67.9 55 10.7 51.3 20.32 0.8
12:25 1019 30.09 848 25.04 20 68 59 12 53.6 20.41 0.804
12:26 1019 30.09 848 25.04 20.1 68.2 55 10.9 51.6 20.54 0.809
12:27 1019 30.09 848 25.04 20.3 68.6 53 10.6 51.1 20.63 0.812
12:28 1019 30.09 848 25.04 20.4 68.7 55 11.1 51.9 20.63 0.812
12:29 1019 30.09 848 25.04 20.3 68.5 54 10.8 51.5 20.54 0.809
12:30 1019 30.09 848 25.04 20.1 68.2 55 11 51.9 20.42 0.804
12:31 1019 30.09 848 25.04 20.1 68.2 53 10.4 50.6 20.34 0.801
12:32 1019 30.09 848 25.04 20.1 68.2 57 11.4 52.6 20.4 0.803
12:33 1019 30.09 848 25.04 20.3 68.5 55 11 51.8 20.63 0.812
12:34 1019 30.09 848 25.04 20.3 68.5 54 10.8 51.4 20.64 0.813
12:35 1019 30.09 848 25.04 20.1 68.2 54 10.6 51 20.45 0.805
12:36 1019 30.09 848 25.04 19.9 67.8 56 11 51.8 20.26 0.798
12:37 1019 30.09 848 25.04 19.8 67.7 56 10.9 51.7 20.21 0.796
12:38 1019 30.09 848 25.04 20.1 68.1 55 10.9 51.5 20.34 0.801
12:39 1019 30.09 848 25.04 20.2 68.4 57 11.5 52.8 20.51 0.807
12:40 1019 30.09 848 25.04 20.4 68.7 54 11 51.9 20.67 0.814
12:41 1019 30.09 848 25.04 20.5 68.9 54 11 51.8 20.69 0.815
12:42 1019 30.09 848 25.04 20.6 69 57 11.8 53.2 20.76 0.817
12:43 1019 30.09 848 25.04 20.7 69.3 53 10.9 51.6 20.99 0.826
12:44 1019 30.09 848 25.04 20.9 69.6 56 11.8 53.2 21.25 0.837
12:45 1019 30.09 848 25.04 21.1 69.9 51 10.7 51.3 21.37 0.841
12:46 1019 30.09 848 25.04 21.1 69.9 54 11.5 52.6 21.28 0.838
12:47 1019 30.09 848 25.04 21 69.9 52 11.1 51.9 21.24 0.836
12:48 1019 30.09 848 25.04 21 69.7 53 11.2 52.1 21.22 0.835
12:49 1019 30.09 848 25.04 21 69.7 53 11 51.9 21.29 0.838
12:50 1019 30.09 848 25.04 21.1 69.9 53 11.2 52.1 21.44 0.844
12:51 1019 30.09 848 25.04 21.2 70.2 53 11.4 52.4 21.62 0.851
12:52 1019 30.09 848 25.04 21.3 70.3 53 11.4 52.5 21.66 0.853
12:53 1019 30.09 848 25.04 21.3 70.4 51 11.1 51.9 21.78 0.857
12:54 1019 30.09 848 25.04 21.5 70.7 52 11.4 52.5 21.91 0.863
12:55 1019 30.09 848 25.04 21.8 71.2 51 11.4 52.4 22.07 0.869
12:56 1019 30.09 848 25.04 21.9 71.4 52 11.9 53.4 22.14 0.872
12:57 1019 30.09 848 25.04 21.9 71.5 48 10.6 51.1 22.14 0.872
12:58 1019 30.09 848 25.04 21.8 71.3 48 10.5 50.8 21.98 0.865
12:59 1019 30.09 848 25.04 21.7 71.1 49 10.6 51.1 21.83 0.859
13:00 1019 30.09 848 25.04 21.7 71 51 11.3 52.4 21.88 0.861
13:01 1019 30.09 848 25.04 21.8 71.2 47 10.2 50.3 21.98 0.865
13:02 1019 30.09 848 25.04 21.6 70.9 52 11.4 52.4 21.69 0.854
13:03 1019 30.09 848 25.04 21.4 70.6 51 11 51.8 21.57 0.849
13:04 1019 30.09 848 25.04 21.4 70.4 51 10.9 51.6 21.52 0.847
13:05 1019 30.09 848 25.04 21.4 70.5 50 10.6 51 21.49 0.846
13:06 1019 30.09 848 25.04 21.3 70.4 49 10.4 50.7 21.44 0.844
13:07 1019 30.09 848 25.04 21.3 70.3 51 10.9 51.6 21.44 0.844
13:08 1019 30.09 848 25.04 21.4 70.4 48 10.2 50.4 21.52 0.847
13:09 1019 30.09 848 25.04 21.3 70.3 50 10.5 50.9 21.56 0.849
13:10 1019 30.09 848 25.04 21.2 70.2 51 10.8 51.5 21.61 0.851
13:11 1019 30.09 848 25.04 21.2 70.2 53 11.3 52.4 21.72 0.855
13:12 1019 30.09 848 25.04 21.5 70.6 54 11.9 53.5 21.94 0.864
13:13 1019 30.09 848 25.04 21.8 71.2 48 10.3 50.6 22.22 0.875
13:14 1019 30.09 848 25.04 22 71.5 49 10.9 51.6 22.42 0.883
13:15 1019 30.09 848 25.04 22.1 71.8 52 11.9 53.4 22.42 0.883
13:16 1019 30.09 848 25.04 22.2 72 48 10.9 51.7 22.46 0.884
13:17 1019 30.09 848 25.04 22.3 72.1 50 11.6 52.8 22.43 0.883
13:18 1019 30.09 848 25.04 22.3 72.1 48 10.9 51.7 22.5 0.886
13:19 1019 30.09 848 25.04 22.4 72.3 51 12 53.6 22.63 0.891
13:20 1019 30.09 848 25.04 22.4 72.3 46 10.5 50.9 22.71 0.894
13:21 1019 30.09 848 25.04 22.5 72.4 47 10.8 51.5 22.71 0.894
13:22 1019 30.09 848 25.04 22.4 72.3 52 12.2 54 22.61 0.89
13:23 1019 30.09 848 25.04 22.5 72.4 46 10.6 51 22.65 0.892
13:24 1019 30.09 848 25.04 22.5 72.4 52 12.2 54 22.65 0.892
13:25 1019 30.09 848 25.04 22.7 72.9 48 11.2 52.1 22.92 0.902
13:26 1019 30.09 848 25.04 22.7 72.9 45 10.4 50.8 22.78 0.897
13:27 1019 30.09 848 25.04 22.6 72.7 46 10.5 50.9 22.69 0.893
13:28 1019 30.09 848 25.04 22.6 72.8 47 11 51.9 22.69 0.893
13:29 1019 30.09 848 25.04 22.8 73 46 10.7 51.2 22.81 0.898
13:30 1019 30.09 848 25.04 22.8 73 45 10.5 50.9 22.87 0.9
13:31 1019 30.09 848 25.04 22.7 72.9 51 12.2 54 22.83 0.899
13:32 1019 30.09 848 25.04 22.7 72.9 50 11.8 53.3 22.85 0.9
13:33 1019 30.09 848 25.04 22.8 73.1 44 10.1 50.2 22.91 0.902
13:34 1019 30.09 848 25.04 22.6 72.7 44 10.1 50.1 22.61 0.89
13:35 1019 30.09 848 25.04 22.4 72.3 46 10.4 50.7 22.41 0.882
13:36 1019 30.09 848 25.04 22.3 72.1 48 11 51.8 22.45 0.884
13:37 1019 30.09 848 25.04 22.4 72.2 50 11.7 53 22.49 0.885
13:38 1018 30.06 848 25.04 22.5 72.5 48 11.2 52.1 22.77 0.896
13:39 1018 30.06 848 25.04 22.8 73 45 10.3 50.6 22.96 0.904
13:40 1018 30.06 848 25.04 22.9 73.2 44 10.1 50.2 23.05 0.907
13:41 1018 30.06 848 25.04 22.9 73.3 46 10.8 51.5 23.12 0.91
13:42 1018 30.06 848 25.04 22.9 73.3 45 10.6 51.1 23.06 0.908
13:43 1018 30.06 848 25.04 23.1 73.5 47 11.2 52.1 23.23 0.915
13:44 1018 30.06 848 25.04 23.2 73.8 47 11.6 52.8 23.49 0.925
13:45 1018 30.06 848 25.04 23.4 74 47 11.7 53.1 23.72 0.934
13:46 1018 30.06 848 25.04 23.6 74.4 43 10.4 50.7 23.88 0.94
13:47 1018 30.06 848 25.04 23.5 74.2 47 11.6 52.9 23.72 0.934
13:48 1018 30.06 848 25.04 23.4 74.2 45 11.1 51.9 23.63 0.93
13:49 1018 30.06 848 25.04 23.4 74.1 45 10.9 51.7 23.51 0.926
13:50 1018 30.06 848 25.04 23.4 74.1 50 12.4 54.4 23.49 0.925
13:51 1018 30.06 848 25.04 23.5 74.2 48 11.8 53.3 23.53 0.926
13:52 1018 30.06 848 25.04 23.4 74.2 46 11.5 52.6 23.56 0.928
13:53 1018 30.06 848 25.04 23.5 74.3 46 11.3 52.3 23.6 0.929
13:54 1018 30.06 848 25.04 23.3 74 45 10.9 51.7 23.31 0.918
13:55 1018 30.06 847 25.01 23 73.4 45 10.6 51.1 22.99 0.905
13:56 1018 30.06 847 25.01 22.7 72.9 50 12 53.6 22.97 0.904
13:57 1018 30.06 847 25.01 22.7 72.8 46 10.6 51.1 23.08 0.909
13:58 1018 30.06 847 25.01 22.7 72.8 48 11.2 52.1 23.03 0.907
13:59 1018 30.06 847 25.01 22.8 73 48 11.4 52.6 23.17 0.912
14:00 1018 30.06 847 25.01 22.9 73.3 48 11.5 52.6 23.34 0.919
14:01 1018 30.06 847 25.01 23.2 73.7 48 11.8 53.3 23.59 0.929
14:02 1018 30.06 847 25.01 23.3 73.9 51 12.8 55 23.74 0.935
14:03 1018 30.06 847 25.01 23.4 74.1 45 10.9 51.7 23.72 0.934
14:04 1018 30.06 847 25.01 23.3 73.9 45 11 51.8 23.47 0.924
14:05 1018 30.06 847 25.01 23.2 73.7 49 12.1 53.8 23.37 0.92
14:06 1018 30.06 847 25.01 23.2 73.7 46 11.2 52.2 23.46 0.924
14:07 1018 30.06 847 25.01 23.4 74.1 46 11.3 52.4 23.63 0.93
14:08 1018 30.06 847 25.01 23.4 74 51 12.7 54.9 23.62 0.93
14:09 1018 30.06 847 25.01 23.5 74.3 46 11.3 52.3 23.84 0.939
14:10 1018 30.06 847 25.01 23.7 74.6 44 10.8 51.4 23.97 0.944
14:11 1018 30.06 847 25.01 23.7 74.7 44 10.8 51.4 24.07 0.948
14:12 1018 30.06 847 25.01 23.8 74.8 46 11.6 52.9 24.01 0.945
14:13 1018 30.06 847 25.01 23.8 74.8 45 11.3 52.3 24.01 0.945
14:14 1018 30.06 847 25.01 23.7 74.7 45 11.3 52.4 23.81 0.937
14:15 1018 30.06 847 25.01 23.7 74.6 43 10.6 51.1 23.64 0.931
14:16 1018 30.06 847 25.01 23.5 74.3 45 11.1 51.9 23.53 0.926
14:17 1018 30.06 847 25.01 23.4 74 44 10.7 51.3 23.55 0.927
14:18 1018 30.06 847 25.01 23.3 73.9 50 12.4 54.3 23.47 0.924
14:19 1018 30.06 847 25.01 23.3 74 46 11.4 52.4 23.68 0.932
14:20 1018 30.06 847 25.01 23.4 74.1 45 11.1 51.9 23.76 0.935
14:21 1018 30.06 847 25.01 23.4 74.2 44 10.7 51.2 23.73 0.934
14:22 1018 30.06 847 25.01 23.3 74 49 12.2 54 23.65 0.931
14:23 1018 30.06 847 25.01 23.5 74.3 47 11.7 53.1 23.84 0.939
14:24 1018 30.06 847 25.01 23.7 74.7 44 10.8 51.4 24.14 0.95
14:25 1018 30.06 847 25.01 23.8 74.8 43 10.6 51.1 24.21 0.953
14:26 1018 30.06 847 25.01 23.9 75 49 12.6 54.6 24.39 0.96
14:27 1018 30.06 847 25.01 24.1 75.4 45 11.7 53.1 24.57 0.967
14:28 1018 30.06 847 25.01 24.3 75.7 44 11.3 52.3 24.65 0.97
14:29 1018 30.06 847 25.01 24.3 75.7 44 11.3 52.4 24.59 0.968
14:30 1018 30.06 847 25.01 24.4 75.9 41 10.3 50.6 24.57 0.967
14:31 1018 30.06 847 25.01 24.4 75.9 43 11.2 52.2 24.52 0.965
14:32 1018 30.06 847 25.01 24.2 75.6 42 10.8 51.4 24.47 0.963
14:33 1018 30.06 847 25.01 24 75.2 41 10.2 50.3 24.25 0.955
14:34 1018 30.06 847 25.01 23.7 74.7 42 10.1 50.2 23.99 0.944
14:35 1018 30.06 847 25.01 23.7 74.6 45 11.2 52.1 23.98 0.944
14:36 1018 30.06 847 25.01 23.7 74.7 45 11.2 52.2 24.08 0.948
14:37 1018 30.06 847 25.01 23.8 74.9 42 10.3 50.6 24.05 0.947
14:38 1018 30.06 847 25.01 23.7 74.7 45 11.3 52.3 23.94 0.943
14:39 1018 30.06 847 25.01 23.7 74.7 43 10.5 50.9 23.99 0.944
14:40 1018 30.06 847 25.01 23.9 74.9 43 10.8 51.4 24.17 0.952
14:41 1018 30.06 847 25.01 24.1 75.4 40 10 50 24.35 0.959
14:42 1018 30.06 847 25.01 24.2 75.5 41 10.2 50.3 24.44 0.962
14:43 1018 30.06 847 25.01 24.2 75.6 43 11.2 52.1 24.43 0.962
14:44 1018 30.06 847 25.01 24.3 75.8 39 9.8 49.7 24.49 0.964
14:45 1018 30.06 847 25.01 24.4 75.9 40 10.3 50.5 24.5 0.965
14:46 1018 30.06 847 25.01 24.4 76 40 10 50.1 24.56 0.967
14:47 1018 30.06 847 25.01 24.4 75.9 43 11.1 52 24.41 0.961
14:48 1018 30.06 847 25.01 24.2 75.5 42 10.7 51.3 24.24 0.954
14:49 1018 30.06 847 25.01 24 75.2 46 11.9 53.5 24.08 0.948
14:50 1018 30.06 847 25.01 23.9 75 42 10.4 50.7 24.04 0.946
14:51 1018 30.06 847 25.01 23.8 74.9 42 10.4 50.7 24.16 0.951
14:52 1018 30.06 847 25.01 23.9 75 44 11 51.8 24.16 0.951
14:53 1018 30.06 847 25.01 23.8 74.9 42 10.3 50.5 24.18 0.952
14:54 1018 30.06 847 25.01 23.9 75 45 11.3 52.3 24.3 0.957
14:55 1018 30.06 847 25.01 23.9 75.1 44 11 51.9 24.3 0.957
14:56 1018 30.06 847 25.01 24 75.1 45 11.6 52.8 24.28 0.956
14:57 1018 30.06 847 25.01 24 75.2 41 10 50 24.25 0.955
14:58 1018 30.06 847 25.01 23.9 75 41 10.1 50.1 24.13 0.95
14:59 1018 30.06 847 25.01 23.8 74.8 42 10.3 50.5 24.16 0.951
15:00 1018 30.06 847 25.01 23.7 74.7 43 10.6 51 24.2 0.953
15:01 1018 30.06 847 25.01 23.8 74.8 45 11.5 52.6 24.32 0.957
15:02 1018 30.06 847 25.01 24 75.3 44 11.1 51.9 24.57 0.967
15:03 1018 30.06 847 25.01 24.2 75.5 42 10.6 51 24.49 0.964
15:04 1018 30.06 847 25.01 24 75.3 41 10 50 24.28 0.956
15:05 1018 30.06 847 25.01 23.9 75 42 10.5 50.8 24.08 0.948
15:06 1018 30.06 847 25.01 23.9 75 42 10.3 50.6 24.16 0.951
15:07 1018 30.06 847 25.01 24 75.1 42 10.3 50.6 24.25 0.955
15:08 1018 30.06 847 25.01 23.9 75 43 10.6 51.1 24.25 0.955
15:09 1018 30.06 847 25.01 23.9 75 46 11.7 53 24.23 0.954
15:10 1018 30.06 847 25.01 24 75.1 41 10 49.9 24.41 0.961
15:11 1018 30.06 847 25.01 24.2 75.6 43 11.1 52.1 24.65 0.97
15:12 1018 30.06 847 25.01 24.4 75.9 41 10.5 50.9 24.89 0.98
15:13 1018 30.06 847 25.01 24.6 76.3 42 11.2 52.1 25 0.984
15:14 1018 30.06 847 25.01 24.7 76.4 44 11.8 53.2 25.14 0.99
15:15 1018 30.06 847 25.01 24.8 76.7 39 10.2 50.4 25.33 0.997
15:16 1018 30.06 847 25.01 24.9 76.8 41 10.9 51.7 25.41 1
15:17 1018 30.06 847 25.01 25 77 42 11.3 52.3 25.44 1.002
15:18 1018 30.06 847 25.01 24.7 76.5 39 10.2 50.4 25.06 0.987
15:19 1018 30.06 847 25.01 24.5 76 42 10.8 51.4 24.77 0.975
15:20 1018 30.06 847 25.01 24.3 75.8 41 10.6 51 24.68 0.972
15:21 1018 30.06 847 25.01 24.2 75.5 45 11.6 52.8 24.54 0.966
15:22 1018 30.06 847 25.01 24.1 75.3 43 11 51.7 24.38 0.96
15:23 1018 30.06 847 25.01 23.9 75 42 10.5 50.9 24.22 0.954
15:24 1018 30.06 847 25.01 23.8 74.9 44 11.1 51.9 24.21 0.953
15:25 1018 30.06 847 25.01 23.8 74.8 43 10.5 50.9 24.18 0.952
15:26 1018 30.06 847 25.01 23.8 74.8 46 11.8 53.2 24.22 0.954
15:27 1018 30.06 847 25.01 23.9 75.1 46 11.7 53 24.35 0.959
15:28 1018 30.06 847 25.01 24.1 75.4 46 11.8 53.2 24.54 0.966
15:29 1018 30.06 847 25.01 24.1 75.4 44 11.2 52.2 24.55 0.967
15:30 1018 30.06 847 25.01 24.2 75.6 42 10.5 51 24.61 0.969
15:31 1018 30.06 847 25.01 24.3 75.7 45 11.8 53.3 24.65 0.97
15:32 1017 30.03 847 25.01 24.2 75.5 42 10.5 50.9 24.61 0.969
15:33 1017 30.03 847 25.01 24.1 75.4 47 12.4 54.4 24.63 0.97
15:34 1018 30.06 847 25.01 24.3 75.7 41 10.6 51 24.76 0.975
15:35 1017 30.03 847 25.01 24.3 75.8 42 10.7 51.3 24.74 0.974
15:36 1017 30.03 847 25.01 24.4 76 41 10.6 51.2 24.93 0.981
15:37 1017 30.03 847 25.01 24.5 76.1 44 11.6 52.8 25.09 0.988
15:38 1017 30.03 847 25.01 24.5 76.2 41 10.5 50.9 25.07 0.987
15:39 1017 30.03 847 25.01 24.4 75.9 41 10.5 50.9 24.87 0.979
15:40 1017 30.03 847 25.01 24.4 75.8 44 11.4 52.6 24.76 0.975
15:41 1017 30.03 847 25.01 24.3 75.7 42 10.8 51.4 24.71 0.973
15:42 1017 30.03 846 24.98 24.3 75.7 41 10.3 50.6 24.71 0.973
15:43 1017 30.03 846 24.98 24.3 75.7 41 10.4 50.8 24.62 0.969
15:44 1017 30.03 846 24.98 24.1 75.3 46 11.9 53.5 24.48 0.964
15:45 1017 30.03 846 24.98 24.1 75.4 46 12 53.5 24.53 0.966
15:46 1017 30.03 846 24.98 24.2 75.5 46 11.9 53.4 24.72 0.973
15:47 1017 30.03 846 24.98 24.4 75.8 41 10.5 50.9 24.84 0.978
15:48 1017 30.03 846 24.98 24.3 75.7 43 11.2 52.2 24.85 0.978
15:49 1017 30.03 846 24.98 24.4 75.9 41 10.6 51.1 24.92 0.981
15:50 1017 30.03 846 24.98 24.5 76 44 11.8 53.2 25 0.984
15:51 1017 30.03 846 24.98 24.5 76.1 42 10.8 51.5 24.98 0.983
15:52 1017 30.03 846 24.98 24.4 75.8 40 10.3 50.5 24.8 0.976
15:53 1017 30.03 846 24.98 24.2 75.6 46 12 53.6 24.65 0.97
15:54 1017 30.03 846 24.98 24.4 76 42 10.9 51.7 24.95 0.982
15:55 1017 30.03 846 24.98 24.6 76.3 40 10.2 50.3 25.05 0.986
15:56 1017 30.03 846 24.98 24.6 76.2 40 10.4 50.7 24.93 0.981
15:57 1017 30.03 846 24.98 24.5 76 39 9.8 49.7 24.89 0.98
15:58 1017 30.03 846 24.98 24.3 75.8 42 10.6 51.2 24.82 0.977
15:59 1017 30.03 846 24.98 24.3 75.7 42 10.7 51.2 24.8 0.976
16:00 1017 30.03 846 24.98 24.4 75.9 41 10.3 50.6 24.9 0.98
16:01 1017 30.03 846 24.98 24.5 76.1 40 10.1 50.2 25.05 0.986
16:02 1017 30.03 846 24.98 24.7 76.5 38 9.7 49.4 25.13 0.989
16:03 1017 30.03 846 24.98 24.7 76.4 40 10.4 50.7 25.04 0.986
16:04 1017 30.03 846 24.98 24.7 76.4 39 10.1 50.3 25.04 0.986
16:05 1017 30.03 846 24.98 24.6 76.3 42 11.2 52.2 24.97 0.983
16:06 1017 30.03 846 24.98 24.6 76.3 39 10.1 50.2 24.99 0.984
16:07 1017 30.03 846 24.98 24.6 76.3 39 10 50 24.97 0.983
16:08 1017 30.03 846 24.98 24.5 76.2 40 10.4 50.7 24.92 0.981
16:09 1017 30.03 846 24.98 24.5 76.2 38 9.6 49.3 24.87 0.979
16:10 1017 30.03 846 24.98 24.4 75.9 40 10 50.1 24.71 0.973
16:11 1017 30.03 846 24.98 24.4 75.8 39 9.8 49.6 24.68 0.972
16:12 1017 30.03 846 24.98 24.4 76 40 10.2 50.4 24.77 0.975
16:13 1017 30.03 846 24.98 24.5 76.1 38 9.4 48.9 24.79 0.976
16:14 1017 30.03 846 24.98 24.4 75.9 37 8.8 47.8 24.71 0.973
16:15 1017 30.03 846 24.98 24.4 75.9 38 9.4 48.9 24.69 0.972
16:16 1017 30.03 846 24.98 24.3 75.8 41 10.5 50.9 24.72 0.973
16:17 1017 30.03 846 24.98 24.3 75.7 39 9.6 49.3 24.62 0.969
16:18 1017 30.03 846 24.98 24.2 75.5 38 9.1 48.4 24.51 0.965
16:19 1017 30.03 846 24.98 24.1 75.3 40 10 49.9 24.37 0.959
16:20 1017 30.03 846 24.98 24.1 75.3 38 8.9 48.1 24.48 0.964
16:21 1016 30 846 24.98 24.1 75.4 39 9.3 48.8 24.42 0.961
16:22 1016 30 846 24.98 24.1 75.4 38 9 48.3 24.43 0.962
16:23 1016 30 846 24.98 24.1 75.4 37 8.8 47.8 24.4 0.961
16:24 1016 30 846 24.98 24 75.1 39 9.4 48.9 24.31 0.957
16:25 1016 30 846 24.98 23.7 74.7 41 9.7 49.5 24.12 0.95
16:26 1016 30 846 24.98 23.5 74.3 40 9.4 48.8 23.87 0.94
16:27 1016 30 846 24.98 23.4 74.1 40 9.3 48.7 23.75 0.935
16:28 1016 30 846 24.98 23.2 73.7 39 8.8 47.8 23.53 0.926
16:29 1016 30 846 24.98 23 73.3 41 9.3 48.7 23.31 0.918
16:30 1016 30 846 24.98 22.8 73 42 9.5 49 23.12 0.91
16:31 1016 30 846 24.98 22.6 72.7 42 9.3 48.8 22.97 0.904
16:32 1016 30 846 24.98 22.6 72.6 43 9.4 48.9 22.91 0.902
16:33 1016 30 846 24.98 22.5 72.5 42 8.9 48.1 22.9 0.902
16:34 1016 30 846 24.98 22.5 72.6 40 8.5 47.3 22.9 0.902
16:35 1016 30 846 24.98 22.5 72.6 40 8.4 47.1 22.9 0.902
16:36 1016 30 846 24.98 22.6 72.6 41 8.9 47.9 22.92 0.902
16:37 1016 30 846 24.98 22.5 72.6 41 9 48.2 22.9 0.902
16:38 1016 30 846 24.98 22.5 72.5 39 8.2 46.8 22.86 0.9
16:39 1016 30 846 24.98 22.5 72.5 40 8.5 47.3 22.86 0.9
16:40 1016 30 846 24.98 22.4 72.4 41 8.8 47.8 22.79 0.897
16:41 1016 30 846 24.98 22.3 72.2 40 8.3 47 22.65 0.892
16:42 1016 30 846 24.98 22.2 72 40 8.3 47 22.61 0.89
16:43 1016 30 846 24.98 22.2 71.9 41 8.4 47.2 22.53 0.887
16:44 1016 30 846 24.98 22.1 71.8 42 8.7 47.6 22.51 0.886
16:45 1016 30 846 24.98 22.1 71.8 42 8.8 47.9 22.49 0.885
16:46 1016 30 846 24.98 22.1 71.7 41 8.3 47 22.46 0.884
16:47 1016 30 846 24.98 22.1 71.7 41 8.3 47 22.5 0.886
16:48 1016 30 846 24.98 22.1 71.8 42 8.9 48 22.52 0.887
16:49 1016 30 846 24.98 22.1 71.7 42 8.9 48 22.44 0.883
16:50 1016 30 846 24.98 22 71.7 41 8.5 47.2 22.41 0.882
16:51 1016 30 846 24.98 22 71.7 41 8.4 47.1 22.44 0.883
16:52 1016 30 846 24.98 22.1 71.8 41 8.4 47.2 22.51 0.886
16:53 1016 30 845 24.95 22.2 71.9 41 8.5 47.3 22.51 0.886
16:54 1016 30 845 24.95 22.2 71.9 42 8.8 47.9 22.52 0.887
16:55 1016 30 845 24.95 22.2 71.9 40 8 46.5 22.49 0.885
16:56 1016 30 845 24.95 22.2 71.9 40 8.1 46.6 22.55 0.888
16:57 1016 30 845 24.95 22.2 71.9 40 8 46.5 22.54 0.887
16:58 1016 30 845 24.95 22.2 71.9 41 8.4 47.2 22.54 0.887
16:59 1016 30 846 24.98 22.1 71.9 41 8.4 47.2 22.48 0.885
17:00 1016 30 846 24.98 22.1 71.7 40 8.1 46.7 22.45 0.884
17:01 1016 30 846 24.98 22.1 71.8 41 8.4 47.2 22.42 0.883
17:02 1016 30 846 24.98 22.1 71.7 41 8.4 47.1 22.41 0.882
17:03 1016 30 846 24.98 22 71.7 40 8 46.5 22.44 0.883
17:04 1016 30 846 24.98 22.1 71.8 40 8.2 46.8 22.44 0.883
17:05 1016 30 846 24.98 22.1 71.7 41 8.3 47 22.44 0.883
17:06 1016 30 846 24.98 22 71.6 41 8.4 47.2 22.39 0.881
17:07 1016 30 846 24.98 22 71.5 42 8.6 47.4 22.36 0.88
17:08 1016 30 846 24.98 21.9 71.5 41 8.3 47 22.27 0.877
17:09 1016 30 846 24.98 21.9 71.3 42 8.7 47.6 22.23 0.875
17:10 1017 30.03 846 24.98 21.9 71.3 42 8.6 47.5 22.19 0.874
17:11 1017 30.03 846 24.98 21.8 71.3 42 8.7 47.6 22.17 0.873
17:12 1017 30.03 846 24.98 21.8 71.2 43 8.7 47.7 22.11 0.87
17:13 1017 30.03 846 24.98 21.7 71 45 9.3 48.7 22.07 0.869
17:14 1017 30.03 846 24.98 21.5 70.8 45 9.1 48.4 21.91 0.863
17:15 1017 30.03 846 24.98 21.5 70.7 44 8.8 47.8 21.87 0.861
17:16 1017 30.03 846 24.98 21.5 70.7 45 9.3 48.7 21.86 0.861
17:17 1017 30.03 846 24.98 21.4 70.6 46 9.4 48.9 21.77 0.857
17:18 1017 30.03 846 24.98 21.3 70.3 48 9.9 49.8 21.62 0.851
17:19 1017 30.03 846 24.98 21.1 70 49 10 50.1 21.46 0.845
17:20 1017 30.03 846 24.98 20.9 69.7 52 10.7 51.3 21.25 0.837
17:21 1017 30.03 846 24.98 20.6 69.1 53 10.9 51.7 20.97 0.826
17:22 1017 30.03 846 24.98 20.5 68.8 53 10.8 51.5 20.76 0.817
17:23 1017 30.03 846 24.98 20.3 68.5 56 11.2 52.2 20.62 0.812
17:24 1017 30.03 846 24.98 20.1 68.2 56 11 51.9 20.46 0.806
17:25 1017 30.03 846 24.98 20 68 55 10.7 51.3 20.33 0.8
17:26 1017 30.03 846 24.98 20 68 51 9.8 49.6 20.36 0.802
17:27 1017 30.03 846 24.98 20.1 68.1 52 10 49.9 20.4 0.803
17:28 1017 30.03 846 24.98 20 68.1 53 10.3 50.6 20.31 0.8
17:29 1017 30.03 846 24.98 19.9 67.8 54 10.3 50.6 20.21 0.796
17:30 1017 30.03 847 25.01 19.7 67.4 55 10.5 50.8 20.06 0.79
17:31 1017 30.03 847 25.01 19.5 67.2 54 10 50.1 19.91 0.784
17:32 1017 30.03 847 25.01 19.4 66.9 50 8.8 47.9 19.74 0.777
17:33 1017 30.03 847 25.01 19.4 66.9 51 9.1 48.4 19.74 0.777
17:34 1018 30.06 847 25.01 19.3 66.7 52 9.3 48.7 19.66 0.774
17:35 1017 30.03 847 25.01 19 66.3 53 9.4 48.9 19.43 0.765
17:36 1017 30.03 847 25.01 18.7 65.7 55 9.6 49.3 19.16 0.754
17:37 1017 30.03 847 25.01 18.5 65.2 56 9.6 49.3 18.91 0.744
17:38 1018 30.06 847 25.01 18.3 64.9 56 9.5 49.1 18.73 0.737
17:39 1018 30.06 847 25.01 18.2 64.7 57 9.5 49.1 18.57 0.731
17:40 1018 30.06 847 25.01 18.1 64.6 57 9.7 49.4 18.49 0.728
17:41 1018 30.06 847 25.01 18 64.5 57 9.5 49.1 18.39 0.724
17:42 1018 30.06 847 25.01 18 64.4 56 9.1 48.3 18.38 0.724
17:43 1018 30.06 847 25.01 18 64.4 57 9.4 48.9 18.35 0.722
17:44 1018 30.06 847 25.01 17.9 64.3 59 9.8 49.6 18.28 0.72
17:45 1018 30.06 847 25.01 17.8 64 60 10 50 18.17 0.715
17:46 1018 30.06 847 25.01 17.6 63.7 61 10.1 50.2 17.99 0.708
17:47 1018 30.06 847 25.01 17.4 63.4 62 10.2 50.4 17.79 0.7
17:48 1018 30.06 847 25.01 17.3 63.1 63 10.3 50.5 17.67 0.696
17:49 1018 30.06 847 25.01 17.2 62.9 63 10.1 50.1 17.53 0.69
17:50 1018 30.06 847 25.01 17.1 62.7 64 10.2 50.4 17.42 0.686
17:51 1018 30.06 847 25.01 17 62.6 65 10.4 50.8 17.34 0.683
17:52 1018 30.06 847 25.01 16.9 62.4 65 10.3 50.6 17.25 0.679
17:53 1018 30.06 847 25.01 16.9 62.3 63 9.8 49.6 17.2 0.677
17:54 1018 30.06 847 25.01 16.9 62.3 63 9.8 49.7 17.19 0.677
17:55 1018 30.06 847 25.01 16.8 62.2 63 9.8 49.6 17.18 0.676
17:56 1018 30.06 847 25.01 16.8 62.2 64 10 50 17.11 0.674
17:57 1018 30.06 847 25.01 16.7 62 64 9.9 49.8 17.04 0.671
17:58 1018 30.06 847 25.01 16.6 62 65 10.1 50.2 17 0.669
17:59 1018 30.06 847 25.01 16.6 61.9 64 9.9 49.9 16.94 0.667
18:00 1018 30.06 847 25.01 16.6 61.8 65 10.1 50.2 16.89 0.665
18:01 1018 30.06 847 25.01 16.5 61.7 65 10.1 50.1 16.83 0.663
18:02 1018 30.06 847 25.01 16.4 61.6 64 9.7 49.5 16.8 0.661
18:03 1018 30.06 847 25.01 16.4 61.6 64 9.7 49.5 16.79 0.661
18:04 1018 30.06 847 25.01 16.4 61.6 64 9.6 49.3 16.77 0.66
18:05 1018 30.06 847 25.01 16.3 61.4 65 9.9 49.9 16.71 0.658
18:06 1018 30.06 847 25.01 16.3 61.3 67 10.2 50.4 16.6 0.654
18:07 1018 30.06 847 25.01 16.1 61 69 10.5 50.9 16.5 0.65
18:08 1018 30.06 847 25.01 15.9 60.7 70 10.5 50.9 16.34 0.643
18:09 1018 30.06 847 25.01 15.8 60.4 72 10.7 51.3 16.17 0.637
18:10 1018 30.06 847 25.01 15.6 60.1 72 10.7 51.3 16.08 0.633
18:11 1018 30.06 847 25.01 15.6 60 73 10.8 51.4 15.96 0.628
18:12 1018 30.06 847 25.01 15.5 59.9 73 10.7 51.3 15.88 0.625
18:13 1018 30.06 847 25.01 15.5 59.9 72 10.6 51.1 15.84 0.624
18:14 1018 30.06 847 25.01 15.6 60 72 10.5 50.9 15.9 0.626
18:15 1018 30.06 847 25.01 15.6 60.1 74 10.9 51.7 15.92 0.627
18:16 1017 30.03 847 25.01 15.6 60.1 72 10.7 51.2 15.9 0.626
18:17 1017 30.03 847 25.01 15.6 60.1 73 10.8 51.4 15.97 0.629
18:18 1018 30.06 847 25.01 15.6 60.1 73 10.9 51.6 15.94 0.628
18:19 1018 30.06 847 25.01 15.6 60 74 10.9 51.6 15.93 0.627
18:20 1018 30.06 847 25.01 15.6 60 72 10.7 51.2 15.89 0.626
18:21 1017 30.03 847 25.01 15.6 60.1 73 10.8 51.4 15.92 0.627
18:22 1017 30.03 847 25.01 15.7 60.3 74 11.2 52.2 15.98 0.629
18:23 1017 30.03 847 25.01 15.6 60.1 75 11.3 52.3 15.9 0.626
18:24 1017 30.03 846 24.98 15.6 60 74 11 51.9 15.86 0.624
18:25 1017 30.03 847 25.01 15.6 60.1 74 11 51.8 15.87 0.625
18:26 1017 30.03 847 25.01 15.6 60.2 76 11.4 52.6 15.87 0.625
18:27 1018 30.06 847 25.01 15.6 60.1 75 11.3 52.4 15.84 0.624
18:28 1018 30.06 847 25.01 15.6 60.1 76 11.3 52.4 15.89 0.626
18:29 1018 30.06 847 25.01 15.7 60.2 73 10.9 51.6 15.91 0.626
18:30 1018 30.06 847 25.01 15.8 60.5 73 11.1 52 16.03 0.631
18:31 1018 30.06 847 25.01 15.8 60.5 76 11.6 53 16.11 0.634
18:32 1018 30.06 847 25.01 15.8 60.4 75 11.4 52.6 16.12 0.635
18:33 1018 30.06 847 25.01 15.8 60.4 75 11.5 52.7 16.12 0.635
18:34 1018 30.06 847 25.01 15.7 60.3 76 11.5 52.7 16.09 0.633
18:35 1018 30.06 847 25.01 15.6 60.2 77 11.6 52.8 16.06 0.632
18:36 1018 30.06 847 25.01 15.6 60.1 77 11.6 52.9 16.06 0.632
18:37 1018 30.06 848 25.04 15.7 60.3 80 12.2 54 16.16 0.636
18:38 1019 30.09 848 25.04 15.9 60.5 80 12.5 54.4 16.31 0.642
18:39 1019 30.09 848 25.04 16 60.9 76 11.8 53.3 16.44 0.647
18:40 1019 30.09 848 25.04 16.2 61.2 71 11.1 51.9 16.58 0.653
18:41 1019 30.09 848 25.04 16.3 61.4 69 10.7 51.3 16.6 0.654
18:42 1019 30.09 848 25.04 16.3 61.4 66 10 50.1 16.61 0.654
18:43 1019 30.09 848 25.04 16.4 61.5 69 10.7 51.3 16.64 0.655
18:44 1018 30.06 848 25.04 16.3 61.4 70 10.9 51.6 16.67 0.656
18:45 1018 30.06 848 25.04 16.4 61.6 68 10.5 51 16.74 0.659
18:46 1018 30.06 848 25.04 16.5 61.8 69 10.8 51.5 16.88 0.665
18:47 1018 30.06 848 25.04 16.7 62.1 68 10.9 51.5 17.02 0.67
18:48 1018 30.06 848 25.04 16.8 62.3 70 11.3 52.4 17.24 0.679
18:49 1018 30.06 848 25.04 17 62.6 69 11.3 52.4 17.39 0.685
18:50 1018 30.06 848 25.04 17.2 62.9 69 11.6 52.8 17.58 0.692
18:51 1018 30.06 848 25.04 17.3 63.2 69 11.6 52.9 17.68 0.696
18:52 1019 30.09 848 25.04 17.4 63.3 67 11.2 52.2 17.79 0.7
18:53 1019 30.09 848 25.04 17.5 63.4 65 10.9 51.6 17.86 0.703
18:54 1019 30.09 848 25.04 17.6 63.7 64 10.7 51.3 17.92 0.706
18:55 1019 30.09 848 25.04 17.6 63.7 65 10.9 51.7 17.99 0.708
18:56 1019 30.09 848 25.04 17.7 63.9 61 10.2 50.3 18.09 0.712
18:57 1019 30.09 848 25.04 17.9 64.1 62 10.5 50.8 18.22 0.717
18:58 1019 30.09 848 25.04 18 64.5 62 10.7 51.3 18.36 0.723
18:59 1019 30.09 848 25.04 18.2 64.7 61 10.5 50.9 18.52 0.729
19:00 1019 30.09 848 25.04 18.3 64.9 66 11.9 53.3 18.61 0.733
19:01 1019 30.09 848 25.04 18.5 65.2 63 11.3 52.4 18.77 0.739
19:02 1019 30.09 848 25.04 18.6 65.4 67 12.3 54.1 18.83 0.741
19:03 1019 30.09 848 25.04 18.4 65.2 68 12.5 54.5 18.74 0.738
19:04 1019 30.09 848 25.04 18.2 64.8 65 11.6 52.9 18.5 0.728
19:05 1019 30.09 848 25.04 17.9 64.2 61 10.3 50.6 18.13 0.714
19:06 1019 30.09 848 25.04 17.6 63.6 60 9.9 49.8 17.84 0.702
19:07 1019 30.09 848 25.04 17.3 63.2 62 10.1 50.2 17.56 0.691
19:08 1019 30.09 848 25.04 17.1 62.8 67 11 51.9 17.43 0.686
19:09 1019 30.09 848 25.04 17 62.6 61 9.5 49 17.35 0.683
19:10 1019 30.09 848 25.04 16.9 62.4 64 10 50.1 17.17 0.676
19:11 1019 30.09 848 25.04 16.8 62.2 64 9.9 49.8 17.03 0.67
19:12 1019 30.09 848 25.04 16.7 62 63 9.6 49.2 16.99 0.669
19:13 1019 30.09 848 25.04 16.7 62 65 10.2 50.3 16.95 0.667
19:14 1019 30.09 848 25.04 16.6 61.9 65 10.2 50.3 16.93 0.667
19:15 1019 30.09 848 25.04 16.6 61.9 65 10.1 50.2 16.91 0.666
19:16 1019 30.09 848 25.04 16.6 61.8 64 9.7 49.5 16.88 0.665
19:17 1019 30.09 848 25.04 16.5 61.7 65 9.9 49.8 16.82 0.662
19:18 1019 30.09 848 25.04 16.4 61.6 67 10.3 50.6 16.71 0.658
19:19 1019 30.09 848 25.04 16.4 61.5 68 10.5 50.9 16.68 0.657
19:20 1019 30.09 848 25.04 16.3 61.4 67 10.2 50.4 16.64 0.655
19:21 1019 30.09 848 25.04 16.3 61.4 65 9.8 49.7 16.66 0.656
19:22 1019 30.09 848 25.04 16.3 61.4 65 9.7 49.4 16.64 0.655
19:23 1019 30.09 848 25.04 16.3 61.3 67 10.3 50.5 16.64 0.655
19:24 1019 30.09 848 25.04 16.3 61.4 66 9.9 49.9 16.67 0.656
19:25 1019 30.09 848 25.04 16.3 61.4 66 10 50 16.67 0.656
19:26 1019 30.09 848 25.04 16.4 61.5 65 10 50 16.7 0.657
19:27 1019 30.09 848 25.04 16.5 61.6 66 10.2 50.3 16.77 0.66
19:28 1019 30.09 848 25.04 16.5 61.7 66 10.2 50.3 16.87 0.664
19:29 1019 30.09 848 25.04 16.6 61.9 65 10.1 50.2 16.88 0.665
19:30 1019 30.09 848 25.04 16.7 62 65 10.1 50.2 16.95 0.667
19:31 1019 30.09 848 25.04 16.7 62.1 65 10.3 50.5 17.03 0.67
19:32 1019 30.09 848 25.04 16.7 62.1 64 10 50.1 17.02 0.67
19:33 1019 30.09 848 25.04 16.7 62 63 9.7 49.5 17 0.669
19:34 1019 30.09 848 25.04 16.7 62 65 10.1 50.3 17.03 0.67
19:35 1019 30.09 848 25.04 16.6 61.9 67 10.6 51 16.97 0.668
19:36 1019 30.09 848 25.04 16.6 61.8 68 10.7 51.3 16.94 0.667
19:37 1019 30.09 848 25.04 16.5 61.7 64 9.8 49.7 16.87 0.664
19:38 1019 30.09 848 25.04 16.5 61.7 65 9.9 49.8 16.83 0.663
19:39 1019 30.09 848 25.04 16.5 61.6 67 10.4 50.7 16.83 0.663
19:40 1019 30.09 848 25.04 16.4 61.6 67 10.3 50.5 16.82 0.662
19:41 1019 30.09 849 25.07 16.4 61.5 67 10.3 50.6 16.77 0.66
19:42 1019 30.09 849 25.07 16.3 61.4 69 10.7 51.2 16.78 0.661
19:43 1019 30.09 849 25.07 16.4 61.4 70 10.9 51.7 16.81 0.662
19:44 1019 30.09 849 25.07 16.4 61.6 67 10.3 50.6 16.85 0.663
19:45 1019 30.09 849 25.07 16.5 61.7 65 10 50 16.9 0.665
19:46 1019 30.09 849 25.07 16.6 61.8 65 10 49.9 16.98 0.669
19:47 1019 30.09 849 25.07 16.6 61.9 65 10 50 17.08 0.672
19:48 1019 30.09 849 25.07 16.7 62.1 66 10.3 50.6 17.15 0.675
19:49 1019 30.09 849 25.07 16.7 62.1 67 10.6 51 17.17 0.676
19:50 1019 30.09 849 25.07 16.6 61.9 68 10.7 51.3 17.13 0.674
19:51 1019 30.09 849 25.07 16.6 61.8 69 10.8 51.5 17.08 0.672
19:52 1019 30.09 849 25.07 16.6 61.8 66 10.3 50.5 17.04 0.671
19:53 1019 30.09 849 25.07 16.5 61.6 70 11 51.8 16.94 0.667
19:54 1019 30.09 849 25.07 16.4 61.5 68 10.6 51.1 16.89 0.665
19:55 1019 30.09 849 25.07 16.4 61.5 69 10.7 51.3 16.85 0.663
19:56 1019 30.09 848 25.04 16.4 61.5 70 10.8 51.5 16.78 0.661
19:57 1019 30.09 849 25.07 16.3 61.4 69 10.8 51.4 16.79 0.661
19:58 1019 30.09 849 25.07 16.3 61.4 70 11 51.7 16.78 0.661
19:59 1019 30.09 849 25.07 16.3 61.4 71 11.1 52 16.75 0.659
20:00 1019 30.09 849 25.07 16.3 61.3 70 10.9 51.7 16.73 0.659
20:01 1020 30.12 849 25.07 16.2 61.2 70 10.9 51.6 16.65 0.656
20:02 1020 30.12 849 25.07 16.2 61.1 72 11.2 52.2 16.64 0.655
20:03 1020 30.12 849 25.07 16.2 61.1 72 11.1 52 16.6 0.654
20:04 1020 30.12 849 25.07 16.1 61 70 10.7 51.3 16.49 0.649
20:05 1020 30.12 849 25.07 16.1 61 71 10.9 51.6 16.46 0.648
20:06 1020 30.12 849 25.07 16 60.8 71 10.7 51.3 16.38 0.645
20:07 1020 30.12 849 25.07 16 60.8 71 10.9 51.5 16.38 0.645
20:08 1020 30.12 849 25.07 15.9 60.7 72 10.9 51.5 16.31 0.642
20:09 1020 30.12 849 25.07 15.9 60.6 72 10.9 51.5 16.3 0.642
20:10 1020 30.12 849 25.07 15.9 60.6 71 10.7 51.3 16.3 0.642
20:11 1020 30.12 849 25.07 15.9 60.5 73 11 51.8 16.29 0.641
20:12 1020 30.12 849 25.07 15.9 60.5 71 10.8 51.4 16.25 0.64
20:13 1020 30.12 849 25.07 15.9 60.5 69 10.3 50.5 16.24 0.639
20:14 1020 30.12 849 25.07 15.9 60.6 69 10.3 50.5 16.27 0.641
20:15 1020 30.12 849 25.07 15.9 60.7 70 10.6 51 16.32 0.643
20:16 1020 30.12 849 25.07 15.9 60.7 72 10.9 51.6 16.33 0.643
20:17 1020 30.12 849 25.07 15.9 60.6 73 11.1 52 16.27 0.641
20:18 1020 30.12 849 25.07 15.8 60.4 73 11.1 51.9 16.22 0.639
20:19 1020 30.12 849 25.07 15.8 60.4 74 11.1 52 16.17 0.637
20:20 1020 30.12 849 25.07 15.8 60.4 74 11.1 52.1 16.14 0.635
20:21 1020 30.12 849 25.07 15.7 60.2 75 11.4 52.5 16.11 0.634
20:22 1020 30.12 849 25.07 15.7 60.2 76 11.5 52.7 16.11 0.634
20:23 1020 30.12 849 25.07 15.7 60.2 74 11 51.8 16.08 0.633
20:24 1020 30.12 849 25.07 15.6 60.1 75 11.2 52.2 16.03 0.631
20:25 1020 30.12 849 25.07 15.6 60.1 75 11.2 52.2 16.04 0.631
20:26 1020 30.12 849 25.07 15.6 60.1 75 11.2 52.1 16.02 0.631
20:27 1020 30.12 849 25.07 15.6 60.1 73 10.9 51.7 15.99 0.63
20:28 1020 30.12 849 25.07 15.6 60.1 75 11.2 52.1 16.06 0.632
20:29 1020 30.12 849 25.07 15.7 60.2 75 11.3 52.3 16.07 0.633
20:30 1020 30.12 849 25.07 15.7 60.2 74 11.2 52.1 16.06 0.632
20:31 1020 30.12 849 25.07 15.6 60.1 74 11 51.9 16.05 0.632
20:32 1020 30.12 849 25.07 15.6 60.1 75 11.2 52.2 16.05 0.632
20:33 1020 30.12 849 25.07 15.6 60.1 74 11.1 51.9 16.03 0.631
20:34 1020 30.12 849 25.07 15.6 60.1 74 11.1 52 16 0.63
20:35 1020 30.12 849 25.07 15.5 60 75 11.2 52.2 15.98 0.629
20:36 1020 30.12 849 25.07 15.5 59.9 75 11.2 52.2 15.96 0.628
20:37 1020 30.12 849 25.07 15.5 59.8 77 11.4 52.5 15.9 0.626
20:38 1020 30.12 849 25.07 15.4 59.8 78 11.6 52.9 15.86 0.624
20:39 1020 30.12 849 25.07 15.4 59.6 78 11.5 52.8 15.8 0.622
20:40 1020 30.12 849 25.07 15.3 59.5 79 11.6 52.9 15.71 0.619
20:41 1020 30.12 849 25.07 15.2 59.4 79 11.6 52.8 15.67 0.617
20:42 1020 30.12 849 25.07 15.2 59.3 80 11.7 53 15.6 0.614
20:43 1020 30.12 849 25.07 15.1 59.2 80 11.7 53 15.55 0.612
20:44 1020 30.12 849 25.07 15.1 59.1 80 11.7 53.1 15.47 0.609
20:45 1020 30.12 849 25.07 15 58.9 80 11.5 52.7 15.45 0.608
20:46 1020 30.12 849 25.07 15 58.9 79 11.4 52.5 15.34 0.604
20:47 1020 30.12 849 25.07 14.9 58.9 77 11 51.9 15.32 0.603
20:48 1019 30.09 849 25.07 15 58.9 78 11.2 52.1 15.37 0.605
20:49 1019 30.09 849 25.07 15 59 78 11.3 52.3 15.33 0.604
20:50 1019 30.09 849 25.07 14.9 58.9 78 11.2 52.2 15.32 0.603
20:51 1019 30.09 849 25.07 15 58.9 78 11.3 52.3 15.32 0.603
20:52 1020 30.12 849 25.07 15 58.9 79 11.4 52.5 15.35 0.604
20:53 1020 30.12 849 25.07 14.9 58.9 78 11.2 52.2 15.31 0.603
20:54 1020 30.12 849 25.07 14.9 58.9 78 11.2 52.2 15.33 0.604
20:55 1020 30.12 849 25.07 15 58.9 79 11.3 52.4 15.34 0.604
20:56 1020 30.12 849 25.07 14.9 58.8 79 11.3 52.4 15.31 0.603
20:57 1020 30.12 849 25.07 14.9 58.8 79 11.2 52.2 15.27 0.601
20:58 1020 30.12 849 25.07 14.9 58.8 78 11.1 52 15.23 0.6
20:59 1020 30.12 849 25.07 14.9 58.8 78 11.1 52 15.29 0.602
21:00 1020 30.12 849 25.07 14.9 58.9 76 10.7 51.2 15.29 0.602
21:01 1020 30.12 849 25.07 14.9 58.9 77 11.1 51.9 15.34 0.604
21:02 1020 30.12 849 25.07 14.9 58.8 77 11 51.8 15.3 0.602
21:03 1020 30.12 849 25.07 14.9 58.7 76 10.7 51.3 15.25 0.6
21:04 1020 30.12 849 25.07 14.9 58.8 74 10.3 50.6 15.21 0.599
21:05 1020 30.12 849 25.07 15 58.9 76 10.9 51.6 15.28 0.602
21:06 1020 30.12 849 25.07 15 59 74 10.5 50.9 15.32 0.603
21:07 1020 30.12 849 25.07 15 59 77 11 51.7 15.36 0.605
21:08 1020 30.12 849 25.07 14.9 58.8 78 11 51.8 15.28 0.602
21:09 1020 30.12 849 25.07 14.8 58.6 78 10.9 51.7 15.2 0.598
21:10 1020 30.12 849 25.07 14.7 58.4 78 10.9 51.7 15.11 0.595
21:11 1020 30.12 849 25.07 14.6 58.3 76 10.6 51 15.01 0.591
21:12 1020 30.12 849 25.07 14.7 58.4 76 10.6 51.1 15.03 0.592
21:13 1020 30.12 849 25.07 14.7 58.4 78 10.9 51.7 15.06 0.593
21:14 1020 30.12 849 25.07 14.6 58.2 79 11.1 52 14.99 0.59
21:15 1020 30.12 849 25.07 14.4 58 80 11.1 52 14.89 0.586
21:16 1020 30.12 849 25.07 14.3 57.7 82 11.2 52.2 14.74 0.58
21:17 1020 30.12 849 25.07 14.2 57.5 83 11.3 52.3 14.61 0.575
21:18 1020 30.12 849 25.07 14.1 57.3 83 11.3 52.4 14.51 0.571
21:19 1020 30.12 849 25.07 14.1 57.3 83 11.3 52.4 14.48 0.57
21:20 1020 30.12 850 25.1 14.1 57.3 83 11.3 52.4 14.5 0.571
21:21 1020 30.12 850 25.1 14.1 57.3 84 11.4 52.4 14.47 0.57
21:22 1020 30.12 850 25.1 14 57.2 84 11.4 52.5 14.45 0.569
21:23 1020 30.12 850 25.1 14 57.2 84 11.4 52.6 14.38 0.566
21:24 1020 30.12 850 25.1 13.9 57.1 85 11.5 52.7 14.33 0.564
21:25 1020 30.12 850 25.1 13.9 56.9 85 11.5 52.6 14.29 0.563
21:26 1020 30.12 850 25.1 13.8 56.9 85 11.4 52.6 14.27 0.562
21:27 1020 30.12 850 25.1 13.9 56.9 85 11.5 52.6 14.21 0.559
21:28 1020 30.12 850 25.1 13.8 56.9 85 11.4 52.6 14.24 0.561
21:29 1020 30.12 850 25.1 13.9 56.9 85 11.4 52.5 14.25 0.561
21:30 1020 30.12 850 25.1 13.9 57.1 85 11.4 52.5 14.25 0.561
21:31 1020 30.12 850 25.1 14 57.1 84 11.4 52.5 14.27 0.562
21:32 1020 30.12 850 25.1 14 57.2 84 11.3 52.4 14.3 0.563
21:33 1020 30.12 850 25.1 14 57.2 84 11.4 52.4 14.32 0.564
21:34 1020 30.12 850 25.1 14 57.2 85 11.5 52.7 14.33 0.564
21:35 1020 30.12 850 25.1 13.9 57 85 11.5 52.7 14.25 0.561
21:36 1020 30.12 850 25.1 13.9 56.9 85 11.5 52.6 14.23 0.56
21:37 1020 30.12 850 25.1 13.8 56.9 85 11.4 52.5 14.16 0.557
21:38 1020 30.12 850 25.1 13.9 57 85 11.3 52.4 14.15 0.557
21:39 1020 30.12 849 25.07 13.9 57 84 11.3 52.4 14.21 0.559
21:40 1020 30.12 849 25.07 13.9 57.1 84 11.3 52.4 14.23 0.56
21:41 1020 30.12 849 25.07 13.9 57.1 84 11.3 52.4 14.25 0.561
21:42 1020 30.12 849 25.07 13.9 57.1 84 11.3 52.4 14.21 0.559
21:43 1020 30.12 849 25.07 14 57.1 84 11.3 52.3 14.23 0.56
21:44 1020 30.12 849 25.07 14 57.1 84 11.3 52.3 14.26 0.561
21:45 1020 30.12 849 25.07 14 57.1 84 11.3 52.3 14.29 0.563
21:46 1020 30.12 849 25.07 14 57.2 84 11.3 52.4 14.28 0.562
21:47 1020 30.12 849 25.07 14 57.1 84 11.3 52.3 14.27 0.562
21:48 1020 30.12 849 25.07 14 57.1 84 11.3 52.3 14.29 0.563
21:49 1020 30.12 849 25.07 14 57.2 84 11.3 52.4 14.34 0.565
21:50 1020 30.12 849 25.07 14.1 57.3 84 11.3 52.4 14.37 0.566
21:51 1020 30.12 849 25.07 14.1 57.4 83 11.3 52.3 14.37 0.566
21:52 1020 30.12 849 25.07 14.1 57.4 82 11.2 52.1 14.4 0.567
21:53 1020 30.12 849 25.07 14.1 57.5 82 11.1 52 14.4 0.567
21:54 1020 30.12 849 25.07 14.2 57.5 81 11.1 51.9 14.43 0.568
21:55 1020 30.12 849 25.07 14.2 57.6 82 11.2 52.1 14.49 0.57
21:56 1020 30.12 849 25.07 14.2 57.6 82 11.2 52.2 14.49 0.57
21:57 1020 30.12 849 25.07 14.2 57.5 82 11.2 52.1 14.45 0.569
21:58 1020 30.12 849 25.07 14.2 57.5 82 11.2 52.2 14.41 0.567
21:59 1020 30.12 849 25.07 14.1 57.4 83 11.2 52.2 14.41 0.567
22:00 1020 30.12 849 25.07 14.1 57.4 83 11.3 52.3 14.39 0.567
22:01 1020 30.12 849 25.07 14 57.3 83 11.3 52.3 14.36 0.565
22:02 1020 30.12 849 25.07 14 57.2 83 11.3 52.3 14.32 0.564
22:03 1020 30.12 849 25.07 14 57.1 84 11.3 52.3 14.34 0.565
22:04 1020 30.12 849 25.07 14 57.1 84 11.3 52.4 14.31 0.563
22:05 1020 30.12 849 25.07 14 57.1 84 11.3 52.4 14.32 0.564
22:06 1020 30.12 849 25.07 13.9 57.1 84 11.3 52.3 14.27 0.562
22:07 1020 30.12 849 25.07 13.9 57.1 84 11.3 52.3 14.27 0.562
22:08 1020 30.12 849 25.07 14 57.2 84 11.3 52.3 14.24 0.561
22:09 1020 30.12 849 25.07 14 57.2 84 11.3 52.3 14.29 0.563
22:10 1020 30.12 849 25.07 14 57.2 84 11.3 52.3 14.31 0.563
22:11 1020 30.12 849 25.07 14 57.2 84 11.3 52.4 14.33 0.564
22:12 1020 30.12 849 25.07 14.1 57.3 84 11.3 52.4 14.35 0.565
22:13 1020 30.12 849 25.07 14 57.2 84 11.4 52.4 14.34 0.565
22:14 1020 30.12 849 25.07 14 57.3 84 11.4 52.5 14.32 0.564
22:15 1020 30.12 849 25.07 14 57.2 84 11.3 52.4 14.34 0.565
22:16 1020 30.12 849 25.07 14 57.2 83 11.2 52.1 14.33 0.564
22:17 1020 30.12 849 25.07 14 57.2 82 10.9 51.7 14.36 0.565
22:18 1020 30.12 849 25.07 14 57.2 81 10.9 51.6 14.37 0.566
22:19 1020 30.12 849 25.07 14.1 57.3 80 10.8 51.4 14.41 0.567
22:20 1020 30.12 849 25.07 14.2 57.5 80 10.8 51.5 14.44 0.569
22:21 1020 30.12 849 25.07 14.1 57.4 80 10.8 51.4 14.42 0.568
22:22 1020 30.12 849 25.07 14.1 57.4 80 10.8 51.4 14.41 0.567
22:23 1020 30.12 849 25.07 14.1 57.4 80 10.7 51.3 14.41 0.567
22:24 1020 30.12 849 25.07 14.1 57.4 78 10.4 50.7 14.41 0.567
22:25 1020 30.12 849 25.07 14.1 57.4 78 10.4 50.7 14.44 0.569
22:26 1020 30.12 849 25.07 14.2 57.5 77 10.2 50.4 14.49 0.57
22:27 1020 30.12 849 25.07 14.2 57.6 77 10.4 50.7 14.56 0.573
22:28 1020 30.12 849 25.07 14.2 57.5 78 10.4 50.7 14.53 0.572
22:29 1020 30.12 849 25.07 14.2 57.6 78 10.5 50.8 14.53 0.572
22:30 1020 30.12 849 25.07 14.2 57.6 78 10.4 50.7 14.56 0.573
22:31 1020 30.12 849 25.07 14.2 57.5 77 10.3 50.5 14.55 0.573
22:32 1020 30.12 849 25.07 14.2 57.5 77 10.2 50.4 14.57 0.574
22:33 1020 30.12 850 25.1 14.2 57.5 76 10.1 50.1 14.57 0.574
22:34 1020 30.12 850 25.1 14.2 57.6 76 10.1 50.3 14.54 0.572
22:35 1020 30.12 850 25.1 14.2 57.6 76 10.1 50.2 14.57 0.574
22:36 1021 30.15 850 25.1 14.2 57.6 76 10 50 14.58 0.574
22:37 1021 30.15 850 25.1 14.2 57.6 76 10 50 14.61 0.575
22:38 1021 30.15 850 25.1 14.3 57.8 76 10.1 50.2 14.65 0.577
22:39 1021 30.15 850 25.1 14.4 57.9 78 10.6 51 14.75 0.581
22:40 1021 30.15 850 25.1 14.4 57.9 79 10.8 51.5 14.79 0.582
22:41 1021 30.15 850 25.1 14.4 57.9 80 10.9 51.7 14.82 0.583
22:42 1021 30.15 850 25.1 14.4 57.9 81 11.2 52.2 14.82 0.583
22:43 1021 30.15 850 25.1 14.3 57.7 83 11.4 52.5 14.72 0.58
22:44 1021 30.15 850 25.1 14.1 57.4 84 11.4 52.5 14.63 0.576
22:45 1021 30.15 850 25.1 14 57.3 84 11.4 52.5 14.48 0.57
22:46 1021 30.15 850 25.1 14 57.1 84 11.3 52.3 14.42 0.568
22:47 1021 30.15 850 25.1 14 57.2 83 11.1 52 14.42 0.568
22:48 1021 30.15 850 25.1 14.1 57.4 83 11.3 52.3 14.45 0.569
22:49 1021 30.15 850 25.1 14.1 57.4 82 11.2 52.2 14.48 0.57
22:50 1021 30.15 850 25.1 14.1 57.4 83 11.2 52.2 14.51 0.571
22:51 1021 30.15 850 25.1 14.1 57.4 83 11.2 52.2 14.49 0.57
22:52 1021 30.15 850 25.1 14 57.3 83 11.2 52.1 14.46 0.569
22:53 1021 30.15 850 25.1 14.1 57.3 82 11.1 52 14.46 0.569
22:54 1021 30.15 850 25.1 14.1 57.3 82 11.1 52.1 14.45 0.569
22:55 1021 30.15 850 25.1 14 57.2 81 10.8 51.5 14.46 0.569
22:56 1021 30.15 850 25.1 14.1 57.3 80 10.7 51.3 14.37 0.566
22:57 1021 30.15 850 25.1 14 57.2 80 10.6 51.1 14.41 0.567
22:58 1021 30.15 850 25.1 14.1 57.3 79 10.5 51 14.39 0.567
22:59 1021 30.15 850 25.1 14.1 57.3 78 10.4 50.7 14.41 0.567
23:00 1021 30.15 850 25.1 14.1 57.3 79 10.4 50.8 14.38 0.566
23:01 1021 30.15 850 25.1 14.1 57.3 78 10.4 50.7 14.42 0.568
23:02 1021 30.15 850 25.1 14.1 57.3 79 10.4 50.8 14.47 0.57
23:03 1021 30.15 850 25.1 14.1 57.4 79 10.5 50.9 14.44 0.569
23:04 1021 30.15 850 25.1 14.1 57.4 78 10.4 50.6 14.42 0.568
23:05 1021 30.15 850 25.1 14.1 57.4 77 10.2 50.4 14.43 0.568
23:06 1021 30.15 850 25.1 14.1 57.4 78 10.4 50.6 14.48 0.57
23:07 1021 30.15 850 25.1 14.1 57.5 78 10.3 50.6 14.54 0.572
23:08 1021 30.15 850 25.1 14.2 57.5 78 10.4 50.7 14.51 0.571
23:09 1021 30.15 850 25.1 14.1 57.4 78 10.3 50.5 14.48 0.57
23:10 1021 30.15 850 25.1 14.1 57.4 77 10.1 50.2 14.48 0.57
23:11 1021 30.15 850 25.1 14.2 57.5 77 10.1 50.3 14.53 0.572
23:12 1021 30.15 850 25.1 14.2 57.5 77 10.3 50.5 14.58 0.574
23:13 1021 30.15 850 25.1 14.3 57.7 76 10.1 50.3 14.6 0.575
23:14 1021 30.15 850 25.1 14.3 57.7 76 10.1 50.2 14.61 0.575
23:15 1021 30.15 850 25.1 14.3 57.7 76 10.2 50.4 14.66 0.577
23:16 1021 30.15 850 25.1 14.3 57.8 77 10.3 50.5 14.63 0.576
23:17 1021 30.15 850 25.1 14.3 57.8 77 10.4 50.7 14.66 0.577
23:18 1021 30.15 850 25.1 14.3 57.7 78 10.5 50.8 14.58 0.574
23:19 1021 30.15 850 25.1 14.2 57.5 79 10.5 51 14.54 0.572
23:20 1021 30.15 850 25.1 14.1 57.4 78 10.4 50.8 14.48 0.57
23:21 1021 30.15 850 25.1 14 57.3 78 10.4 50.6 14.43 0.568
23:22 1021 30.15 850 25.1 14.1 57.4 78 10.4 50.8 14.51 0.571
23:23 1021 30.15 850 25.1 14.1 57.4 78 10.4 50.8 14.44 0.569
23:24 1021 30.15 850 25.1 14 57.2 79 10.5 50.8 14.39 0.567
23:25 1021 30.15 850 25.1 13.9 57 80 10.6 51 14.31 0.563
23:26 1021 30.15 850 25.1 13.8 56.8 81 10.6 51.1 14.19 0.559
23:27 1020 30.12 850 25.1 13.6 56.5 82 10.6 51 14.08 0.554
23:28 1020 30.12 850 25.1 13.5 56.4 82 10.6 51 13.98 0.55
23:29 1020 30.12 850 25.1 13.5 56.3 83 10.6 51.1 13.89 0.547
23:30 1020 30.12 850 25.1 13.3 56 83 10.5 50.9 13.78 0.543
23:31 1020 30.12 849 25.07 13.3 55.9 83 10.5 50.9 13.68 0.539
23:32 1020 30.12 849 25.07 13.2 55.8 84 10.5 51 13.62 0.536
23:33 1020 30.12 849 25.07 13.2 55.7 84 10.5 50.9 13.62 0.536
23:34 1020 30.12 849 25.07 13.2 55.7 84 10.5 50.9 13.61 0.536
23:35 1020 30.12 849 25.07 13.2 55.7 84 10.6 51.1 13.54 0.533
23:36 1020 30.12 849 25.07 13.2 55.8 85 10.7 51.2 13.56 0.534
23:37 1020 30.12 849 25.07 13.1 55.7 85 10.7 51.2 13.53 0.533
23:38 1020 30.12 849 25.07 13.1 55.6 85 10.7 51.3 13.48 0.531
23:39 1020 30.12 849 25.07 13.1 55.6 86 10.7 51.3 13.48 0.531
23:40 1020 30.12 849 25.07 13.1 55.5 85 10.7 51.3 13.44 0.529
23:41 1020 30.12 849 25.07 13 55.4 86 10.7 51.2 13.41 0.528
23:42 1020 30.12 849 25.07 13 55.3 86 10.6 51.1 13.32 0.524
23:43 1020 30.12 849 25.07 12.9 55.3 86 10.6 51 13.24 0.521
23:44 1020 30.12 849 25.07 12.9 55.3 85 10.5 50.9 13.31 0.524
23:45 1020 30.12 849 25.07 12.9 55.3 85 10.4 50.8 13.24 0.521
23:46 1020 30.12 849 25.07 13 55.3 84 10.4 50.7 13.32 0.524
23:47 1020 30.12 849 25.07 13 55.3 84 10.4 50.7 13.27 0.522
23:48 1020 30.12 849 25.07 13 55.3 85 10.4 50.8 13.28 0.523
23:49 1020 30.12 849 25.07 12.9 55.1 85 10.4 50.7 13.19 0.519
23:50 1020 30.12 849 25.07 12.8 55.1 85 10.4 50.7 13.14 0.517
23:51 1020 30.12 849 25.07 12.9 55.2 84 10.3 50.6 13.21 0.52
23:52 1020 30.12 849 25.07 13 55.3 84 10.3 50.6 13.2 0.52
23:53 1020 30.12 849 25.07 13 55.3 84 10.3 50.6 13.26 0.522
23:54 1020 30.12 849 25.07 13 55.4 84 10.3 50.6 13.27 0.522
23:55 1020 30.12 849 25.07 13 55.4 84 10.3 50.6 13.31 0.524
23:56 1020 30.12 849 25.07 13 55.4 84 10.3 50.5 13.25 0.522
23:57 1020 30.12 849 25.07 13 55.4 83 10.2 50.3 13.29 0.523
23:58 1020 30.12 849 25.07 13.1 55.5 83 10.2 50.3 13.32 0.524
23:59 1020 30.12 849 25.07 13.1 55.6 82 10.1 50.2 13.37 0.526
24:00 1020 30.12 849 25.07 13.1 55.6 81 10.1 50.1 13.42 0.528